<?xml version="1.0" encoding="UTF-8" standalone="no" ?><gpx xmlns="http://www.topografix.com/GPX/1/1" xmlns:gpxx="http://www.garmin.com/xmlschemas/GpxExtensions/v3" xmlns:wptx1="http://www.garmin.com/xmlschemas/WaypointExtension/v1" xmlns:gpxtpx="http://www.garmin.com/xmlschemas/TrackPointExtension/v1" creator="GuideVTT.com" version="1.1" xmlns:xsi="http://www.w3.org/2001/XMLSchema-instance" xsi:schemaLocation="http://www.topografix.com/GPX/1/1 http://www.topografix.com/GPX/1/1/gpx.xsd http://www.garmin.com/xmlschemas/GpxExtensions/v3 http://www8.garmin.com/xmlschemas/GpxExtensionsv3.xsd http://www.garmin.com/xmlschemas/WaypointExtension/v1 http://www8.garmin.com/xmlschemas/WaypointExtensionv1.xsd http://www.garmin.com/xmlschemas/TrackPointExtension/v1 http://www.garmin.com/xmlschemas/TrackPointExtensionv1.xsd">
<metadata><link href="http://www.garmin.com"><text>Garmin International</text></link><time>2013-06-22T15:13:50Z</time></metadata>
<trk><name>rp_vtt_2012_26.gpx</name><extensions><gpxx:TrackExtension><gpxx:DisplayColor>Cyan</gpxx:DisplayColor></gpxx:TrackExtension></extensions><trkseg>
<trkpt lat="46.5998506732" lon="6.3753713574"><ele></ele><time>2013-7-26T6:42:42Z</time></trkpt>
<trkpt lat="46.5998458117" lon="6.3753595389"><ele></ele><time>2013-7-26T6:42:45Z</time></trkpt>
<trkpt lat="46.5998520143" lon="6.3753770571"><ele></ele><time>2013-7-26T6:42:48Z</time></trkpt>
<trkpt lat="46.5998549480" lon="6.3753789850"><ele></ele><time>2013-7-26T6:42:51Z</time></trkpt>
<trkpt lat="46.5998489130" lon="6.3754009455"><ele></ele><time>2013-7-26T6:42:54Z</time></trkpt>
<trkpt lat="46.5998484101" lon="6.3753949944"><ele></ele><time>2013-7-26T6:42:57Z</time></trkpt>
<trkpt lat="46.5998527687" lon="6.3753934857"><ele></ele><time>2013-7-26T6:43:0Z</time></trkpt>
<trkpt lat="46.5998361725" lon="6.3754371554"><ele></ele><time>2013-7-26T6:43:3Z</time></trkpt>
<trkpt lat="46.5998242702" lon="6.3754313719"><ele></ele><time>2013-7-26T6:43:6Z</time></trkpt>
<trkpt lat="46.5998292994" lon="6.3754185475"><ele></ele><time>2013-7-26T6:43:9Z</time></trkpt>
<trkpt lat="46.5998258628" lon="6.3754065614"><ele></ele><time>2013-7-26T6:43:12Z</time></trkpt>
<trkpt lat="46.5998023096" lon="6.3753846008"><ele></ele><time>2013-7-26T6:43:15Z</time></trkpt>
<trkpt lat="46.5997966100" lon="6.3754411787"><ele></ele><time>2013-7-26T6:43:18Z</time></trkpt>
<trkpt lat="46.5997815225" lon="6.3755205553"><ele></ele><time>2013-7-26T6:43:21Z</time></trkpt>
<trkpt lat="46.5997842886" lon="6.3755648956"><ele></ele><time>2013-7-26T6:43:24Z</time></trkpt>
<trkpt lat="46.5998062491" lon="6.3759822305"><ele></ele><time>2013-7-26T6:43:27Z</time></trkpt>
<trkpt lat="46.5999178961" lon="6.3762783632"><ele></ele><time>2013-7-26T6:43:30Z</time></trkpt>
<trkpt lat="46.6001741309" lon="6.3765314966"><ele></ele><time>2013-7-26T6:43:33Z</time></trkpt>
<trkpt lat="46.6004012804" lon="6.3765878230"><ele></ele><time>2013-7-26T6:43:36Z</time></trkpt>
<trkpt lat="46.6005591955" lon="6.3767206762"><ele></ele><time>2013-7-26T6:43:39Z</time></trkpt>
<trkpt lat="46.6006329563" lon="6.3768282160"><ele></ele><time>2013-7-26T6:43:42Z</time></trkpt>
<trkpt lat="46.6006116662" lon="6.3767941017"><ele></ele><time>2013-7-26T6:43:45Z</time></trkpt>
<trkpt lat="46.6005993448" lon="6.3767989632"><ele></ele><time>2013-7-26T6:43:48Z</time></trkpt>
<trkpt lat="46.6006153543" lon="6.3768052496"><ele></ele><time>2013-7-26T6:43:51Z</time></trkpt>
<trkpt lat="46.6008614469" lon="6.3770106900"><ele></ele><time>2013-7-26T6:43:54Z</time></trkpt>
<trkpt lat="46.6010377184" lon="6.3770846184"><ele></ele><time>2013-7-26T6:43:57Z</time></trkpt>
<trkpt lat="46.6012543906" lon="6.3771192357"><ele></ele><time>2013-7-26T6:44:0Z</time></trkpt>
<trkpt lat="46.6014447436" lon="6.3769074250"><ele></ele><time>2013-7-26T6:44:3Z</time></trkpt>
<trkpt lat="46.6015711427" lon="6.3766398747"><ele></ele><time>2013-7-26T6:44:6Z</time></trkpt>
<trkpt lat="46.6016614158" lon="6.3763496932"><ele></ele><time>2013-7-26T6:44:9Z</time></trkpt>
<trkpt lat="46.6017109528" lon="6.3759296760"><ele></ele><time>2013-7-26T6:44:12Z</time></trkpt>
<trkpt lat="46.6017387807" lon="6.3755803183"><ele></ele><time>2013-7-26T6:44:15Z</time></trkpt>
<trkpt lat="46.6017474141" lon="6.3751628995"><ele></ele><time>2013-7-26T6:44:18Z</time></trkpt>
<trkpt lat="46.6018522717" lon="6.3746925071"><ele></ele><time>2013-7-26T6:44:21Z</time></trkpt>
<trkpt lat="46.6020533536" lon="6.3742482662"><ele></ele><time>2013-7-26T6:44:24Z</time></trkpt>
<trkpt lat="46.6020901501" lon="6.3738516346"><ele></ele><time>2013-7-26T6:44:27Z</time></trkpt>
<trkpt lat="46.6020199936" lon="6.3734712638"><ele></ele><time>2013-7-26T6:44:30Z</time></trkpt>
<trkpt lat="46.6019630805" lon="6.3733804040"><ele></ele><time>2013-7-26T6:44:33Z</time></trkpt>
<trkpt lat="46.6018901579" lon="6.3732962497"><ele></ele><time>2013-7-26T6:44:36Z</time></trkpt>
<trkpt lat="46.6015265509" lon="6.3730552699"><ele></ele><time>2013-7-26T6:44:39Z</time></trkpt>
<trkpt lat="46.6011763550" lon="6.3728018012"><ele></ele><time>2013-7-26T6:44:42Z</time></trkpt>
<trkpt lat="46.6010672227" lon="6.3723132201"><ele></ele><time>2013-7-26T6:44:45Z</time></trkpt>
<trkpt lat="46.6013012454" lon="6.3715689071"><ele></ele><time>2013-7-26T6:44:48Z</time></trkpt>
<trkpt lat="46.6012832243" lon="6.3708867040"><ele></ele><time>2013-7-26T6:44:51Z</time></trkpt>
<trkpt lat="46.6012031771" lon="6.3706061617"><ele></ele><time>2013-7-26T6:44:54Z</time></trkpt>
<trkpt lat="46.6011864971" lon="6.3698789477"><ele></ele><time>2013-7-26T6:44:57Z</time></trkpt>
<trkpt lat="46.6011149995" lon="6.3694138359"><ele></ele><time>2013-7-26T6:45:0Z</time></trkpt>
<trkpt lat="46.6007911228" lon="6.3686205726"><ele></ele><time>2013-7-26T6:45:3Z</time></trkpt>
<trkpt lat="46.6005677450" lon="6.3682368491"><ele></ele><time>2013-7-26T6:45:6Z</time></trkpt>
<trkpt lat="46.6006095707" lon="6.3678734936"><ele></ele><time>2013-7-26T6:45:9Z</time></trkpt>
<trkpt lat="46.6007207986" lon="6.3675288297"><ele></ele><time>2013-7-26T6:45:12Z</time></trkpt>
<trkpt lat="46.6009035241" lon="6.3672567531"><ele></ele><time>2013-7-26T6:45:15Z</time></trkpt>
<trkpt lat="46.6010786220" lon="6.3669622131"><ele></ele><time>2013-7-26T6:45:18Z</time></trkpt>
<trkpt lat="46.6011799593" lon="6.3666696846"><ele></ele><time>2013-7-26T6:45:21Z</time></trkpt>
<trkpt lat="46.6012129840" lon="6.3663127832"><ele></ele><time>2013-7-26T6:45:24Z</time></trkpt>
<trkpt lat="46.6012994014" lon="6.3660318218"><ele></ele><time>2013-7-26T6:45:27Z</time></trkpt>
<trkpt lat="46.6014385410" lon="6.3659476675"><ele></ele><time>2013-7-26T6:45:30Z</time></trkpt>
<trkpt lat="46.6015045065" lon="6.3660042454"><ele></ele><time>2013-7-26T6:45:33Z</time></trkpt>
<trkpt lat="46.6016711388" lon="6.3661662675"><ele></ele><time>2013-7-26T6:45:36Z</time></trkpt>
<trkpt lat="46.6017550416" lon="6.3662767410"><ele></ele><time>2013-7-26T6:45:39Z</time></trkpt>
<trkpt lat="46.6017643455" lon="6.3662745617"><ele></ele><time>2013-7-26T6:45:42Z</time></trkpt>
<trkpt lat="46.6018126253" lon="6.3663547765"><ele></ele><time>2013-7-26T6:45:45Z</time></trkpt>
<trkpt lat="46.6018638387" lon="6.3664597180"><ele></ele><time>2013-7-26T6:45:48Z</time></trkpt>
<trkpt lat="46.6018891521" lon="6.3665671740"><ele></ele><time>2013-7-26T6:45:51Z</time></trkpt>
<trkpt lat="46.6020044871" lon="6.3669664878"><ele></ele><time>2013-7-26T6:45:54Z</time></trkpt>
<trkpt lat="46.6020219214" lon="6.3670491334"><ele></ele><time>2013-7-26T6:45:57Z</time></trkpt>
<trkpt lat="46.6020688601" lon="6.3672103174"><ele></ele><time>2013-7-26T6:46:0Z</time></trkpt>
<trkpt lat="46.6021499969" lon="6.3673730101"><ele></ele><time>2013-7-26T6:46:3Z</time></trkpt>
<trkpt lat="46.6023276094" lon="6.3676586654"><ele></ele><time>2013-7-26T6:46:6Z</time></trkpt>
<trkpt lat="46.6023964249" lon="6.3677696418"><ele></ele><time>2013-7-26T6:46:9Z</time></trkpt>
<trkpt lat="46.6024766397" lon="6.3680673670"><ele></ele><time>2013-7-26T6:46:12Z</time></trkpt>
<trkpt lat="46.6025495622" lon="6.3682925049"><ele></ele><time>2013-7-26T6:46:15Z</time></trkpt>
<trkpt lat="46.6025753785" lon="6.3683779165"><ele></ele><time>2013-7-26T6:46:18Z</time></trkpt>
<trkpt lat="46.6026887018" lon="6.3686929084"><ele></ele><time>2013-7-26T6:46:21Z</time></trkpt>
<trkpt lat="46.6028565075" lon="6.3687779848"><ele></ele><time>2013-7-26T6:46:24Z</time></trkpt>
<trkpt lat="46.6030337848" lon="6.3686447963"><ele></ele><time>2013-7-26T6:46:27Z</time></trkpt>
<trkpt lat="46.6032267362" lon="6.3686041441"><ele></ele><time>2013-7-26T6:46:30Z</time></trkpt>
<trkpt lat="46.6034034267" lon="6.3687431160"><ele></ele><time>2013-7-26T6:46:33Z</time></trkpt>
<trkpt lat="46.6035794467" lon="6.3688316289"><ele></ele><time>2013-7-26T6:46:36Z</time></trkpt>
<trkpt lat="46.6036245413" lon="6.3687857799"><ele></ele><time>2013-7-26T6:46:39Z</time></trkpt>
<trkpt lat="46.6036757547" lon="6.3686731271"><ele></ele><time>2013-7-26T6:46:42Z</time></trkpt>
<trkpt lat="46.6037017386" lon="6.3685735501"><ele></ele><time>2013-7-26T6:46:45Z</time></trkpt>
<trkpt lat="46.6036999784" lon="6.3685381785"><ele></ele><time>2013-7-26T6:46:48Z</time></trkpt>
<trkpt lat="46.6036759224" lon="6.3683190756"><ele></ele><time>2013-7-26T6:46:51Z</time></trkpt>
<trkpt lat="46.6036102083" lon="6.3680936862"><ele></ele><time>2013-7-26T6:46:54Z</time></trkpt>
<trkpt lat="46.6035844758" lon="6.3679031655"><ele></ele><time>2013-7-26T6:46:57Z</time></trkpt>
<trkpt lat="46.6037472524" lon="6.3675917778"><ele></ele><time>2013-7-26T6:47:0Z</time></trkpt>
<trkpt lat="46.6039245296" lon="6.3674272411"><ele></ele><time>2013-7-26T6:47:3Z</time></trkpt>
<trkpt lat="46.6041279584" lon="6.3672828209"><ele></ele><time>2013-7-26T6:47:6Z</time></trkpt>
<trkpt lat="46.6043658368" lon="6.3671795558"><ele></ele><time>2013-7-26T6:47:9Z</time></trkpt>
<trkpt lat="46.6045982670" lon="6.3671533205"><ele></ele><time>2013-7-26T6:47:12Z</time></trkpt>
<trkpt lat="46.6048147716" lon="6.3671672344"><ele></ele><time>2013-7-26T6:47:15Z</time></trkpt>
<trkpt lat="46.6050541587" lon="6.3671690784"><ele></ele><time>2013-7-26T6:47:18Z</time></trkpt>
<trkpt lat="46.6052634548" lon="6.3671674021"><ele></ele><time>2013-7-26T6:47:21Z</time></trkpt>
<trkpt lat="46.6054425761" lon="6.3671419211"><ele></ele><time>2013-7-26T6:47:24Z</time></trkpt>
<trkpt lat="46.6056308337" lon="6.3670303579"><ele></ele><time>2013-7-26T6:47:27Z</time></trkpt>
<trkpt lat="46.6057009064" lon="6.3669907115"><ele></ele><time>2013-7-26T6:47:30Z</time></trkpt>
<trkpt lat="46.6058900021" lon="6.3669671584"><ele></ele><time>2013-7-26T6:47:33Z</time></trkpt>
<trkpt lat="46.6061023995" lon="6.3669462875"><ele></ele><time>2013-7-26T6:47:36Z</time></trkpt>
<trkpt lat="46.6062617395" lon="6.3669482153"><ele></ele><time>2013-7-26T6:47:39Z</time></trkpt>
<trkpt lat="46.6065210756" lon="6.3669062220"><ele></ele><time>2013-7-26T6:47:42Z</time></trkpt>
<trkpt lat="46.6067218222" lon="6.3668515719"><ele></ele><time>2013-7-26T6:47:45Z</time></trkpt>
<trkpt lat="46.6069151927" lon="6.3668085728"><ele></ele><time>2013-7-26T6:47:48Z</time></trkpt>
<trkpt lat="46.6071073897" lon="6.3667711895"><ele></ele><time>2013-7-26T6:47:51Z</time></trkpt>
<trkpt lat="46.6071573459" lon="6.3667585328"><ele></ele><time>2013-7-26T6:47:54Z</time></trkpt>
<trkpt lat="46.6071865149" lon="6.3667584490"><ele></ele><time>2013-7-26T6:47:57Z</time></trkpt>
<trkpt lat="46.6073847469" lon="6.3667629752"><ele></ele><time>2013-7-26T6:48:0Z</time></trkpt>
<trkpt lat="46.6076102201" lon="6.3668843452"><ele></ele><time>2013-7-26T6:48:3Z</time></trkpt>
<trkpt lat="46.6077861562" lon="6.3668806572"><ele></ele><time>2013-7-26T6:48:6Z</time></trkpt>
<trkpt lat="46.6079919320" lon="6.3668617979"><ele></ele><time>2013-7-26T6:48:9Z</time></trkpt>
<trkpt lat="46.6082018986" lon="6.3668631390"><ele></ele><time>2013-7-26T6:48:12Z</time></trkpt>
<trkpt lat="46.6084059142" lon="6.3668268453"><ele></ele><time>2013-7-26T6:48:15Z</time></trkpt>
<trkpt lat="46.6085069999" lon="6.3667312078"><ele></ele><time>2013-7-26T6:48:18Z</time></trkpt>
<trkpt lat="46.6086554434" lon="6.3665235043"><ele></ele><time>2013-7-26T6:48:21Z</time></trkpt>
<trkpt lat="46.6088391747" lon="6.3663520943"><ele></ele><time>2013-7-26T6:48:24Z</time></trkpt>
<trkpt lat="46.6090446990" lon="6.3664145395"><ele></ele><time>2013-7-26T6:48:27Z</time></trkpt>
<trkpt lat="46.6092095710" lon="6.3665318862"><ele></ele><time>2013-7-26T6:48:30Z</time></trkpt>
<trkpt lat="46.6093074717" lon="6.3664703630"><ele></ele><time>2013-7-26T6:48:33Z</time></trkpt>
<trkpt lat="46.6092442721" lon="6.3662665989"><ele></ele><time>2013-7-26T6:48:36Z</time></trkpt>
<trkpt lat="46.6091847606" lon="6.3661058340"><ele></ele><time>2013-7-26T6:48:39Z</time></trkpt>
<trkpt lat="46.6091722716" lon="6.3660331629"><ele></ele><time>2013-7-26T6:48:42Z</time></trkpt>
<trkpt lat="46.6091172863" lon="6.3657278940"><ele></ele><time>2013-7-26T6:48:45Z</time></trkpt>
<trkpt lat="46.6090804059" lon="6.3656579051"><ele></ele><time>2013-7-26T6:48:48Z</time></trkpt>
<trkpt lat="46.6090179607" lon="6.3656139001"><ele></ele><time>2013-7-26T6:48:51Z</time></trkpt>
<trkpt lat="46.6088098381" lon="6.3657059334"><ele></ele><time>2013-7-26T6:48:54Z</time></trkpt>
<trkpt lat="46.6085549444" lon="6.3657647744"><ele></ele><time>2013-7-26T6:48:57Z</time></trkpt>
<trkpt lat="46.6084430460" lon="6.3655103836"><ele></ele><time>2013-7-26T6:49:0Z</time></trkpt>
<trkpt lat="46.6084523499" lon="6.3654284924"><ele></ele><time>2013-7-26T6:49:3Z</time></trkpt>
<trkpt lat="46.6084376816" lon="6.3653453439"><ele></ele><time>2013-7-26T6:49:6Z</time></trkpt>
<trkpt lat="46.6084296349" lon="6.3652357087"><ele></ele><time>2013-7-26T6:49:9Z</time></trkpt>
<trkpt lat="46.6083964426" lon="6.3649023604"><ele></ele><time>2013-7-26T6:49:12Z</time></trkpt>
<trkpt lat="46.6082378570" lon="6.3645987678"><ele></ele><time>2013-7-26T6:49:15Z</time></trkpt>
<trkpt lat="46.6080767568" lon="6.3644197304"><ele></ele><time>2013-7-26T6:49:18Z</time></trkpt>
<trkpt lat="46.6079218592" lon="6.3641836122"><ele></ele><time>2013-7-26T6:49:21Z</time></trkpt>
<trkpt lat="46.6078087874" lon="6.3640359230"><ele></ele><time>2013-7-26T6:49:24Z</time></trkpt>
<trkpt lat="46.6076588351" lon="6.3637933508"><ele></ele><time>2013-7-26T6:49:27Z</time></trkpt>
<trkpt lat="46.6075104754" lon="6.3635548856"><ele></ele><time>2013-7-26T6:49:30Z</time></trkpt>
<trkpt lat="46.6073513869" lon="6.3634447474"><ele></ele><time>2013-7-26T6:49:33Z</time></trkpt>
<trkpt lat="46.6071710084" lon="6.3633161690"><ele></ele><time>2013-7-26T6:49:36Z</time></trkpt>
<trkpt lat="46.6070301924" lon="6.3632522151"><ele></ele><time>2013-7-26T6:49:39Z</time></trkpt>
<trkpt lat="46.6070135124" lon="6.3632623572"><ele></ele><time>2013-7-26T6:49:42Z</time></trkpt>
<trkpt lat="46.6067883745" lon="6.3632842340"><ele></ele><time>2013-7-26T6:49:45Z</time></trkpt>
<trkpt lat="46.6066713631" lon="6.3631047774"><ele></ele><time>2013-7-26T6:49:48Z</time></trkpt>
<trkpt lat="46.6066136956" lon="6.3629042823"><ele></ele><time>2013-7-26T6:49:51Z</time></trkpt>
<trkpt lat="46.6065255180" lon="6.3626498077"><ele></ele><time>2013-7-26T6:49:54Z</time></trkpt>
<trkpt lat="46.6065115202" lon="6.3626250811"><ele></ele><time>2013-7-26T6:49:57Z</time></trkpt>
<trkpt lat="46.6063515935" lon="6.3624902163"><ele></ele><time>2013-7-26T6:50:0Z</time></trkpt>
<trkpt lat="46.6061334964" lon="6.3624260109"><ele></ele><time>2013-7-26T6:50:3Z</time></trkpt>
<trkpt lat="46.6059487592" lon="6.3623151183"><ele></ele><time>2013-7-26T6:50:6Z</time></trkpt>
<trkpt lat="46.6057585739" lon="6.3622322213"><ele></ele><time>2013-7-26T6:50:9Z</time></trkpt>
<trkpt lat="46.6055485234" lon="6.3621575385"><ele></ele><time>2013-7-26T6:50:12Z</time></trkpt>
<trkpt lat="46.6053982358" lon="6.3620281219"><ele></ele><time>2013-7-26T6:50:15Z</time></trkpt>
<trkpt lat="46.6054617707" lon="6.3618557900"><ele></ele><time>2013-7-26T6:50:18Z</time></trkpt>
<trkpt lat="46.6055793688" lon="6.3619111106"><ele></ele><time>2013-7-26T6:50:21Z</time></trkpt>
<trkpt lat="46.6057303268" lon="6.3619000465"><ele></ele><time>2013-7-26T6:50:24Z</time></trkpt>
<trkpt lat="46.6058620904" lon="6.3618399482"><ele></ele><time>2013-7-26T6:50:27Z</time></trkpt>
<trkpt lat="46.6059846338" lon="6.3618063368"><ele></ele><time>2013-7-26T6:50:30Z</time></trkpt>
<trkpt lat="46.6060723923" lon="6.3617936801"><ele></ele><time>2013-7-26T6:50:33Z</time></trkpt>
<trkpt lat="46.6062464006" lon="6.3617391139"><ele></ele><time>2013-7-26T6:50:36Z</time></trkpt>
<trkpt lat="46.6064380109" lon="6.3616467454"><ele></ele><time>2013-7-26T6:50:39Z</time></trkpt>
<trkpt lat="46.6066380031" lon="6.3616219349"><ele></ele><time>2013-7-26T6:50:42Z</time></trkpt>
<trkpt lat="46.6067038011" lon="6.3616377767"><ele></ele><time>2013-7-26T6:50:45Z</time></trkpt>
<trkpt lat="46.6069006920" lon="6.3616413809"><ele></ele><time>2013-7-26T6:50:48Z</time></trkpt>
<trkpt lat="46.6069405060" lon="6.3616516069"><ele></ele><time>2013-7-26T6:50:51Z</time></trkpt>
<trkpt lat="46.6071237344" lon="6.3616695441"><ele></ele><time>2013-7-26T6:50:54Z</time></trkpt>
<trkpt lat="46.6072736029" lon="6.3617249485"><ele></ele><time>2013-7-26T6:50:57Z</time></trkpt>
<trkpt lat="46.6074392293" lon="6.3617749047"><ele></ele><time>2013-7-26T6:51:0Z</time></trkpt>
<trkpt lat="46.6076055262" lon="6.3617672771"><ele></ele><time>2013-7-26T6:51:3Z</time></trkpt>
<trkpt lat="46.6077568196" lon="6.3617348392"><ele></ele><time>2013-7-26T6:51:6Z</time></trkpt>
<trkpt lat="46.6079190932" lon="6.3617184106"><ele></ele><time>2013-7-26T6:51:9Z</time></trkpt>
<trkpt lat="46.6081321612" lon="6.3617422991"><ele></ele><time>2013-7-26T6:51:12Z</time></trkpt>
<trkpt lat="46.6083433852" lon="6.3617886510"><ele></ele><time>2013-7-26T6:51:15Z</time></trkpt>
<trkpt lat="46.6085440479" lon="6.3618779182"><ele></ele><time>2013-7-26T6:51:18Z</time></trkpt>
<trkpt lat="46.6087716166" lon="6.3619868830"><ele></ele><time>2013-7-26T6:51:21Z</time></trkpt>
<trkpt lat="46.6089984309" lon="6.3620215002"><ele></ele><time>2013-7-26T6:51:24Z</time></trkpt>
<trkpt lat="46.6092096549" lon="6.3620789163"><ele></ele><time>2013-7-26T6:51:27Z</time></trkpt>
<trkpt lat="46.6093723476" lon="6.3620916568"><ele></ele><time>2013-7-26T6:51:30Z</time></trkpt>
<trkpt lat="46.6095585935" lon="6.3620809279"><ele></ele><time>2013-7-26T6:51:33Z</time></trkpt>
<trkpt lat="46.6097518802" lon="6.3621046487"><ele></ele><time>2013-7-26T6:51:36Z</time></trkpt>
<trkpt lat="46.6099613439" lon="6.3620735519"><ele></ele><time>2013-7-26T6:51:39Z</time></trkpt>
<trkpt lat="46.6101320833" lon="6.3621045649"><ele></ele><time>2013-7-26T6:51:42Z</time></trkpt>
<trkpt lat="46.6102990508" lon="6.3620991167"><ele></ele><time>2013-7-26T6:51:45Z</time></trkpt>
<trkpt lat="46.6105236020" lon="6.3621326443"><ele></ele><time>2013-7-26T6:51:48Z</time></trkpt>
<trkpt lat="46.6106876358" lon="6.3621409424"><ele></ele><time>2013-7-26T6:51:51Z</time></trkpt>
<trkpt lat="46.6108090058" lon="6.3621686026"><ele></ele><time>2013-7-26T6:51:54Z</time></trkpt>
<trkpt lat="46.6110174637" lon="6.3622680120"><ele></ele><time>2013-7-26T6:51:57Z</time></trkpt>
<trkpt lat="46.6111566871" lon="6.3622873742"><ele></ele><time>2013-7-26T6:52:0Z</time></trkpt>
<trkpt lat="46.6112027038" lon="6.3622612227"><ele></ele><time>2013-7-26T6:52:3Z</time></trkpt>
<trkpt lat="46.6112270951" lon="6.3622590434"><ele></ele><time>2013-7-26T6:52:6Z</time></trkpt>
<trkpt lat="46.6112848464" lon="6.3622299582"><ele></ele><time>2013-7-26T6:52:9Z</time></trkpt>
<trkpt lat="46.6113037057" lon="6.3622303773"><ele></ele><time>2013-7-26T6:52:12Z</time></trkpt>
<trkpt lat="46.6112962458" lon="6.3622501586"><ele></ele><time>2013-7-26T6:52:15Z</time></trkpt>
<trkpt lat="46.6112932283" lon="6.3622514997"><ele></ele><time>2013-7-26T6:52:18Z</time></trkpt>
<trkpt lat="46.6112953238" lon="6.3622497395"><ele></ele><time>2013-7-26T6:52:21Z</time></trkpt>
<trkpt lat="46.6112932283" lon="6.3622261863"><ele></ele><time>2013-7-26T6:52:24Z</time></trkpt>
<trkpt lat="46.6113088187" lon="6.3622442912"><ele></ele><time>2013-7-26T6:52:27Z</time></trkpt>
<trkpt lat="46.6113004368" lon="6.3622229174"><ele></ele><time>2013-7-26T6:52:30Z</time></trkpt>
<trkpt lat="46.6112886183" lon="6.3622203190"><ele></ele><time>2013-7-26T6:52:33Z</time></trkpt>
<trkpt lat="46.6112976708" lon="6.3621858694"><ele></ele><time>2013-7-26T6:52:36Z</time></trkpt>
<trkpt lat="46.6112767998" lon="6.3621456362"><ele></ele><time>2013-7-26T6:52:39Z</time></trkpt>
<trkpt lat="46.6112577729" lon="6.3621342368"><ele></ele><time>2013-7-26T6:52:42Z</time></trkpt>
<trkpt lat="46.6112534981" lon="6.3621313032"><ele></ele><time>2013-7-26T6:52:45Z</time></trkpt>
<trkpt lat="46.6112574376" lon="6.3621643279"><ele></ele><time>2013-7-26T6:52:48Z</time></trkpt>
<trkpt lat="46.6112730280" lon="6.3622077461"><ele></ele><time>2013-7-26T6:52:51Z</time></trkpt>
<trkpt lat="46.6112793144" lon="6.3622286171"><ele></ele><time>2013-7-26T6:52:54Z</time></trkpt>
<trkpt lat="46.6112822480" lon="6.3622255996"><ele></ele><time>2013-7-26T6:52:57Z</time></trkpt>
<trkpt lat="46.6112850141" lon="6.3622227497"><ele></ele><time>2013-7-26T6:53:0Z</time></trkpt>
<trkpt lat="46.6113146860" lon="6.3622161280"><ele></ele><time>2013-7-26T6:53:3Z</time></trkpt>
<trkpt lat="46.6113828309" lon="6.3622258510"><ele></ele><time>2013-7-26T6:53:6Z</time></trkpt>
<trkpt lat="46.6116472799" lon="6.3622962590"><ele></ele><time>2013-7-26T6:53:9Z</time></trkpt>
<trkpt lat="46.6119476873" lon="6.3623536751"><ele></ele><time>2013-7-26T6:53:12Z</time></trkpt>
<trkpt lat="46.6121100448" lon="6.3623842690"><ele></ele><time>2013-7-26T6:53:15Z</time></trkpt>
<trkpt lat="46.6121776868" lon="6.3624084089"><ele></ele><time>2013-7-26T6:53:18Z</time></trkpt>
<trkpt lat="46.6124267969" lon="6.3625603728"><ele></ele><time>2013-7-26T6:53:21Z</time></trkpt>
<trkpt lat="46.6124743223" lon="6.3629551604"><ele></ele><time>2013-7-26T6:53:24Z</time></trkpt>
<trkpt lat="46.6123759188" lon="6.3632307574"><ele></ele><time>2013-7-26T6:53:27Z</time></trkpt>
<trkpt lat="46.6123187542" lon="6.3634828851"><ele></ele><time>2013-7-26T6:53:30Z</time></trkpt>
<trkpt lat="46.6123630106" lon="6.3635466713"><ele></ele><time>2013-7-26T6:53:33Z</time></trkpt>
<trkpt lat="46.6124401242" lon="6.3635588251"><ele></ele><time>2013-7-26T6:53:36Z</time></trkpt>
<trkpt lat="46.6125271283" lon="6.3635418098"><ele></ele><time>2013-7-26T6:53:39Z</time></trkpt>
<trkpt lat="46.6127560381" lon="6.3635040913"><ele></ele><time>2013-7-26T6:53:42Z</time></trkpt>
<trkpt lat="46.6129450500" lon="6.3635980524"><ele></ele><time>2013-7-26T6:53:45Z</time></trkpt>
<trkpt lat="46.6131269373" lon="6.3637540396"><ele></ele><time>2013-7-26T6:53:48Z</time></trkpt>
<trkpt lat="46.6131818388" lon="6.3637651037"><ele></ele><time>2013-7-26T6:53:51Z</time></trkpt>
<trkpt lat="46.6133779753" lon="6.3636718132"><ele></ele><time>2013-7-26T6:53:54Z</time></trkpt>
<trkpt lat="46.6135632992" lon="6.3635970466"><ele></ele><time>2013-7-26T6:53:57Z</time></trkpt>
<trkpt lat="46.6137619503" lon="6.3636343461"><ele></ele><time>2013-7-26T6:54:0Z</time></trkpt>
<trkpt lat="46.6139554884" lon="6.3638383616"><ele></ele><time>2013-7-26T6:54:3Z</time></trkpt>
<trkpt lat="46.6140346974" lon="6.3640951831"><ele></ele><time>2013-7-26T6:54:6Z</time></trkpt>
<trkpt lat="46.6141314246" lon="6.3644257654"><ele></ele><time>2013-7-26T6:54:9Z</time></trkpt>
<trkpt lat="46.6142782755" lon="6.3645805791"><ele></ele><time>2013-7-26T6:54:12Z</time></trkpt>
<trkpt lat="46.6142882500" lon="6.3645816687"><ele></ele><time>2013-7-26T6:54:15Z</time></trkpt>
<trkpt lat="46.6144885775" lon="6.3645539246"><ele></ele><time>2013-7-26T6:54:18Z</time></trkpt>
<trkpt lat="46.6147140507" lon="6.3645020407"><ele></ele><time>2013-7-26T6:54:21Z</time></trkpt>
<trkpt lat="46.6148395278" lon="6.3644993585"><ele></ele><time>2013-7-26T6:54:24Z</time></trkpt>
<trkpt lat="46.6148639191" lon="6.3644972630"><ele></ele><time>2013-7-26T6:54:27Z</time></trkpt>
<trkpt lat="46.6150745563" lon="6.3643867895"><ele></ele><time>2013-7-26T6:54:30Z</time></trkpt>
<trkpt lat="46.6152998619" lon="6.3644292857"><ele></ele><time>2013-7-26T6:54:33Z</time></trkpt>
<trkpt lat="46.6155329626" lon="6.3645126857"><ele></ele><time>2013-7-26T6:54:36Z</time></trkpt>
<trkpt lat="46.6157346312" lon="6.3645406812"><ele></ele><time>2013-7-26T6:54:39Z</time></trkpt>
<trkpt lat="46.6159624513" lon="6.3646105025"><ele></ele><time>2013-7-26T6:54:42Z</time></trkpt>
<trkpt lat="46.6161658801" lon="6.3645212352"><ele></ele><time>2013-7-26T6:54:45Z</time></trkpt>
<trkpt lat="46.6161862481" lon="6.3644359075"><ele></ele><time>2013-7-26T6:54:48Z</time></trkpt>
<trkpt lat="46.6161734238" lon="6.3643964287"><ele></ele><time>2013-7-26T6:54:51Z</time></trkpt>
<trkpt lat="46.6160383075" lon="6.3642627373"><ele></ele><time>2013-7-26T6:54:54Z</time></trkpt>
<trkpt lat="46.6158462781" lon="6.3640737254"><ele></ele><time>2013-7-26T6:54:57Z</time></trkpt>
<trkpt lat="46.6157577652" lon="6.3639614079"><ele></ele><time>2013-7-26T6:55:0Z</time></trkpt>
<trkpt lat="46.6155742854" lon="6.3637472503"><ele></ele><time>2013-7-26T6:55:3Z</time></trkpt>
<trkpt lat="46.6153631452" lon="6.3635795284"><ele></ele><time>2013-7-26T6:55:6Z</time></trkpt>
<trkpt lat="46.6151370853" lon="6.3634750899"><ele></ele><time>2013-7-26T6:55:9Z</time></trkpt>
<trkpt lat="46.6148384381" lon="6.3632400613"><ele></ele><time>2013-7-26T6:55:12Z</time></trkpt>
<trkpt lat="46.6146479174" lon="6.3629424199"><ele></ele><time>2013-7-26T6:55:15Z</time></trkpt>
<trkpt lat="46.6144324187" lon="6.3627810683"><ele></ele><time>2013-7-26T6:55:18Z</time></trkpt>
<trkpt lat="46.6141983960" lon="6.3626150228"><ele></ele><time>2013-7-26T6:55:21Z</time></trkpt>
<trkpt lat="46.6140186880" lon="6.3623781502"><ele></ele><time>2013-7-26T6:55:24Z</time></trkpt>
<trkpt lat="46.6139759403" lon="6.3622767292"><ele></ele><time>2013-7-26T6:55:27Z</time></trkpt>
<trkpt lat="46.6139585897" lon="6.3621471450"><ele></ele><time>2013-7-26T6:55:30Z</time></trkpt>
<trkpt lat="46.6139143333" lon="6.3619116135"><ele></ele><time>2013-7-26T6:55:33Z</time></trkpt>
<trkpt lat="46.6138118226" lon="6.3615714759"><ele></ele><time>2013-7-26T6:55:36Z</time></trkpt>
<trkpt lat="46.6136866808" lon="6.3613170013"><ele></ele><time>2013-7-26T6:55:39Z</time></trkpt>
<trkpt lat="46.6136666480" lon="6.3612397201"><ele></ele><time>2013-7-26T6:55:42Z</time></trkpt>
<trkpt lat="46.6136385687" lon="6.3611643668"><ele></ele><time>2013-7-26T6:55:45Z</time></trkpt>
<trkpt lat="46.6135027818" lon="6.3609793782"><ele></ele><time>2013-7-26T6:55:48Z</time></trkpt>
<trkpt lat="46.6133096628" lon="6.3608273305"><ele></ele><time>2013-7-26T6:55:51Z</time></trkpt>
<trkpt lat="46.6131181363" lon="6.3607111573"><ele></ele><time>2013-7-26T6:55:54Z</time></trkpt>
<trkpt lat="46.6129649989" lon="6.3606020249"><ele></ele><time>2013-7-26T6:55:57Z</time></trkpt>
<trkpt lat="46.6127616540" lon="6.3604850974"><ele></ele><time>2013-7-26T6:56:0Z</time></trkpt>
<trkpt lat="46.6125798505" lon="6.3604053017"><ele></ele><time>2013-7-26T6:56:3Z</time></trkpt>
<trkpt lat="46.6123507731" lon="6.3603108376"><ele></ele><time>2013-7-26T6:56:6Z</time></trkpt>
<trkpt lat="46.6123815347" lon="6.3602701854"><ele></ele><time>2013-7-26T6:56:9Z</time></trkpt>
<trkpt lat="46.6125565488" lon="6.3603156991"><ele></ele><time>2013-7-26T6:56:12Z</time></trkpt>
<trkpt lat="46.6126896534" lon="6.3603011146"><ele></ele><time>2013-7-26T6:56:15Z</time></trkpt>
<trkpt lat="46.6128232609" lon="6.3603200577"><ele></ele><time>2013-7-26T6:56:18Z</time></trkpt>
<trkpt lat="46.6129649151" lon="6.3603282720"><ele></ele><time>2013-7-26T6:56:21Z</time></trkpt>
<trkpt lat="46.6131502390" lon="6.3603439461"><ele></ele><time>2013-7-26T6:56:24Z</time></trkpt>
<trkpt lat="46.6133384965" lon="6.3603790663"><ele></ele><time>2013-7-26T6:56:27Z</time></trkpt>
<trkpt lat="46.6135389917" lon="6.3604493067"><ele></ele><time>2013-7-26T6:56:30Z</time></trkpt>
<trkpt lat="46.6137088090" lon="6.3604656514"><ele></ele><time>2013-7-26T6:56:33Z</time></trkpt>
<trkpt lat="46.6137198731" lon="6.3604669087"><ele></ele><time>2013-7-26T6:56:36Z</time></trkpt>
<trkpt lat="46.6138716694" lon="6.3604959939"><ele></ele><time>2013-7-26T6:56:39Z</time></trkpt>
<trkpt lat="46.6140089650" lon="6.3605120033"><ele></ele><time>2013-7-26T6:56:42Z</time></trkpt>
<trkpt lat="46.6140614357" lon="6.3605246600"><ele></ele><time>2013-7-26T6:56:45Z</time></trkpt>
<trkpt lat="46.6142196860" lon="6.3605453633"><ele></ele><time>2013-7-26T6:56:48Z</time></trkpt>
<trkpt lat="46.6144083627" lon="6.3605705928"><ele></ele><time>2013-7-26T6:56:51Z</time></trkpt>
<trkpt lat="46.6145909205" lon="6.3606041204"><ele></ele><time>2013-7-26T6:56:54Z</time></trkpt>
<trkpt lat="46.6147557087" lon="6.3606314454"><ele></ele><time>2013-7-26T6:56:57Z</time></trkpt>
<trkpt lat="46.6149053257" lon="6.3606337085"><ele></ele><time>2013-7-26T6:57:0Z</time></trkpt>
<trkpt lat="46.6150293779" lon="6.3606537413"><ele></ele><time>2013-7-26T6:57:3Z</time></trkpt>
<trkpt lat="46.6152069066" lon="6.3606886938"><ele></ele><time>2013-7-26T6:57:6Z</time></trkpt>
<trkpt lat="46.6153535899" lon="6.3607308548"><ele></ele><time>2013-7-26T6:57:9Z</time></trkpt>
<trkpt lat="46.6155061405" lon="6.3607958984"><ele></ele><time>2013-7-26T6:57:12Z</time></trkpt>
<trkpt lat="46.6156853456" lon="6.3608520571"><ele></ele><time>2013-7-26T6:57:15Z</time></trkpt>
<trkpt lat="46.6158348788" lon="6.3608777896"><ele></ele><time>2013-7-26T6:57:18Z</time></trkpt>
<trkpt lat="46.6159846634" lon="6.3609019294"><ele></ele><time>2013-7-26T6:57:21Z</time></trkpt>
<trkpt lat="46.6161673050" lon="6.3609592617"><ele></ele><time>2013-7-26T6:57:24Z</time></trkpt>
<trkpt lat="46.6163626034" lon="6.3610205334"><ele></ele><time>2013-7-26T6:57:27Z</time></trkpt>
<trkpt lat="46.6163748410" lon="6.3610218745"><ele></ele><time>2013-7-26T6:57:30Z</time></trkpt>
<trkpt lat="46.6164520383" lon="6.3609559927"><ele></ele><time>2013-7-26T6:57:33Z</time></trkpt>
<trkpt lat="46.6166898329" lon="6.3609876763"><ele></ele><time>2013-7-26T6:57:36Z</time></trkpt>
<trkpt lat="46.6169075109" lon="6.3610792067"><ele></ele><time>2013-7-26T6:57:39Z</time></trkpt>
<trkpt lat="46.6169378534" lon="6.3610985689"><ele></ele><time>2013-7-26T6:57:42Z</time></trkpt>
<trkpt lat="46.6171791684" lon="6.3612548076"><ele></ele><time>2013-7-26T6:57:45Z</time></trkpt>
<trkpt lat="46.6174787376" lon="6.3614922669"><ele></ele><time>2013-7-26T6:57:48Z</time></trkpt>
<trkpt lat="46.6179172788" lon="6.3616353460"><ele></ele><time>2013-7-26T6:57:51Z</time></trkpt>
<trkpt lat="46.6181994975" lon="6.3616776746"><ele></ele><time>2013-7-26T6:57:54Z</time></trkpt>
<trkpt lat="46.6183186881" lon="6.3617502619"><ele></ele><time>2013-7-26T6:57:57Z</time></trkpt>
<trkpt lat="46.6184797883" lon="6.3618635852"><ele></ele><time>2013-7-26T6:58:0Z</time></trkpt>
<trkpt lat="46.6186174192" lon="6.3619551156"><ele></ele><time>2013-7-26T6:58:3Z</time></trkpt>
<trkpt lat="46.6187889129" lon="6.3618496712"><ele></ele><time>2013-7-26T6:58:6Z</time></trkpt>
<trkpt lat="46.6189052537" lon="6.3617754914"><ele></ele><time>2013-7-26T6:58:9Z</time></trkpt>
<trkpt lat="46.6190392803" lon="6.3617438916"><ele></ele><time>2013-7-26T6:58:12Z</time></trkpt>
<trkpt lat="46.6191596445" lon="6.3617106993"><ele></ele><time>2013-7-26T6:58:15Z</time></trkpt>
<trkpt lat="46.6193359159" lon="6.3616525289"><ele></ele><time>2013-7-26T6:58:18Z</time></trkpt>
<trkpt lat="46.6195867863" lon="6.3616382796"><ele></ele><time>2013-7-26T6:58:21Z</time></trkpt>
<trkpt lat="46.6198336333" lon="6.3616733160"><ele></ele><time>2013-7-26T6:58:24Z</time></trkpt>
<trkpt lat="46.6200177837" lon="6.3616729807"><ele></ele><time>2013-7-26T6:58:27Z</time></trkpt>
<trkpt lat="46.6201682389" lon="6.3616548758"><ele></ele><time>2013-7-26T6:58:30Z</time></trkpt>
<trkpt lat="46.6203031875" lon="6.3616103679"><ele></ele><time>2013-7-26T6:58:33Z</time></trkpt>
<trkpt lat="46.6204445064" lon="6.3616021536"><ele></ele><time>2013-7-26T6:58:36Z</time></trkpt>
<trkpt lat="46.6206147429" lon="6.3615513593"><ele></ele><time>2013-7-26T6:58:39Z</time></trkpt>
<trkpt lat="46.6207734123" lon="6.3615304884"><ele></ele><time>2013-7-26T6:58:42Z</time></trkpt>
<trkpt lat="46.6209275555" lon="6.3614911772"><ele></ele><time>2013-7-26T6:58:45Z</time></trkpt>
<trkpt lat="46.6209791880" lon="6.3614777662"><ele></ele><time>2013-7-26T6:58:48Z</time></trkpt>
<trkpt lat="46.6209916770" lon="6.3614907581"><ele></ele><time>2013-7-26T6:58:51Z</time></trkpt>
<trkpt lat="46.6209987178" lon="6.3614917640"><ele></ele><time>2013-7-26T6:58:54Z</time></trkpt>
<trkpt lat="46.6210894100" lon="6.3614799455"><ele></ele><time>2013-7-26T6:58:57Z</time></trkpt>
<trkpt lat="46.6212205868" lon="6.3614335097"><ele></ele><time>2013-7-26T6:59:0Z</time></trkpt>
<trkpt lat="46.6213568766" lon="6.3613882475"><ele></ele><time>2013-7-26T6:59:3Z</time></trkpt>
<trkpt lat="46.6215513367" lon="6.3613516185"><ele></ele><time>2013-7-26T6:59:6Z</time></trkpt>
<trkpt lat="46.6216694377" lon="6.3613211922"><ele></ele><time>2013-7-26T6:59:9Z</time></trkpt>
<trkpt lat="46.6217209864" lon="6.3612964656"><ele></ele><time>2013-7-26T6:59:12Z</time></trkpt>
<trkpt lat="46.6218955815" lon="6.3611920271"><ele></ele><time>2013-7-26T6:59:15Z</time></trkpt>
<trkpt lat="46.6220661532" lon="6.3610666338"><ele></ele><time>2013-7-26T6:59:18Z</time></trkpt>
<trkpt lat="46.6222663131" lon="6.3609797973"><ele></ele><time>2013-7-26T6:59:21Z</time></trkpt>
<trkpt lat="46.6222936381" lon="6.3609814737"><ele></ele><time>2013-7-26T6:59:24Z</time></trkpt>
<trkpt lat="46.6223093960" lon="6.3609786239"><ele></ele><time>2013-7-26T6:59:27Z</time></trkpt>
<trkpt lat="46.6224869248" lon="6.3608828187"><ele></ele><time>2013-7-26T6:59:30Z</time></trkpt>
<trkpt lat="46.6226159222" lon="6.3608433399"><ele></ele><time>2013-7-26T6:59:33Z</time></trkpt>
<trkpt lat="46.6227479372" lon="6.3608168531"><ele></ele><time>2013-7-26T6:59:36Z</time></trkpt>
<trkpt lat="46.6228951234" lon="6.3608043641"><ele></ele><time>2013-7-26T6:59:39Z</time></trkpt>
<trkpt lat="46.6229843069" lon="6.3608010113"><ele></ele><time>2013-7-26T6:59:42Z</time></trkpt>
<trkpt lat="46.6231725644" lon="6.3607426733"><ele></ele><time>2013-7-26T6:59:45Z</time></trkpt>
<trkpt lat="46.6233364306" lon="6.3606888615"><ele></ele><time>2013-7-26T6:59:48Z</time></trkpt>
<trkpt lat="46.6234960221" lon="6.3606300205"><ele></ele><time>2013-7-26T6:59:51Z</time></trkpt>
<trkpt lat="46.6236535180" lon="6.3605969958"><ele></ele><time>2013-7-26T6:59:54Z</time></trkpt>
<trkpt lat="46.6238551028" lon="6.3605628815"><ele></ele><time>2013-7-26T6:59:57Z</time></trkpt>
<trkpt lat="46.6240394209" lon="6.3605204690"><ele></ele><time>2013-7-26T7:0:0Z</time></trkpt>
<trkpt lat="46.6242300253" lon="6.3604934793"><ele></ele><time>2013-7-26T7:0:3Z</time></trkpt>
<trkpt lat="46.6244637966" lon="6.3604646455"><ele></ele><time>2013-7-26T7:0:6Z</time></trkpt>
<trkpt lat="46.6247331072" lon="6.3604213111"><ele></ele><time>2013-7-26T7:0:9Z</time></trkpt>
<trkpt lat="46.6250373702" lon="6.3604301959"><ele></ele><time>2013-7-26T7:0:12Z</time></trkpt>
<trkpt lat="46.6253045853" lon="6.3604331296"><ele></ele><time>2013-7-26T7:0:15Z</time></trkpt>
<trkpt lat="46.6255365126" lon="6.3604249153"><ele></ele><time>2013-7-26T7:0:18Z</time></trkpt>
<trkpt lat="46.6257517599" lon="6.3604234904"><ele></ele><time>2013-7-26T7:0:21Z</time></trkpt>
<trkpt lat="46.6260212380" lon="6.3603906333"><ele></ele><time>2013-7-26T7:0:24Z</time></trkpt>
<trkpt lat="46.6262269299" lon="6.3603456225"><ele></ele><time>2013-7-26T7:0:27Z</time></trkpt>
<trkpt lat="46.6264348850" lon="6.3602872845"><ele></ele><time>2013-7-26T7:0:30Z</time></trkpt>
<trkpt lat="46.6265612002" lon="6.3602937385"><ele></ele><time>2013-7-26T7:0:33Z</time></trkpt>
<trkpt lat="46.6268092208" lon="6.3603955787"><ele></ele><time>2013-7-26T7:0:36Z</time></trkpt>
<trkpt lat="46.6269676387" lon="6.3603931479"><ele></ele><time>2013-7-26T7:0:39Z</time></trkpt>
<trkpt lat="46.6270125657" lon="6.3603949081"><ele></ele><time>2013-7-26T7:0:42Z</time></trkpt>
<trkpt lat="46.6270203609" lon="6.3603992667"><ele></ele><time>2013-7-26T7:0:45Z</time></trkpt>
<trkpt lat="46.6271455027" lon="6.3604203053"><ele></ele><time>2013-7-26T7:0:48Z</time></trkpt>
<trkpt lat="46.6273176670" lon="6.3604102470"><ele></ele><time>2013-7-26T7:0:51Z</time></trkpt>
<trkpt lat="46.6275763325" lon="6.3603466284"><ele></ele><time>2013-7-26T7:0:54Z</time></trkpt>
<trkpt lat="46.6277806833" lon="6.3602966722"><ele></ele><time>2013-7-26T7:0:57Z</time></trkpt>
<trkpt lat="46.6278535221" lon="6.3602752145"><ele></ele><time>2013-7-26T7:1:0Z</time></trkpt>
<trkpt lat="46.6281115171" lon="6.3601710275"><ele></ele><time>2013-7-26T7:1:3Z</time></trkpt>
<trkpt lat="46.6283403430" lon="6.3600379229"><ele></ele><time>2013-7-26T7:1:6Z</time></trkpt>
<trkpt lat="46.6285462026" lon="6.3599929120"><ele></ele><time>2013-7-26T7:1:9Z</time></trkpt>
<trkpt lat="46.6285702586" lon="6.3599892240"><ele></ele><time>2013-7-26T7:1:12Z</time></trkpt>
<trkpt lat="46.6287866794" lon="6.3600147050"><ele></ele><time>2013-7-26T7:1:15Z</time></trkpt>
<trkpt lat="46.6288317740" lon="6.3600216620"><ele></ele><time>2013-7-26T7:1:18Z</time></trkpt>
<trkpt lat="46.6289980710" lon="6.3600287866"><ele></ele><time>2013-7-26T7:1:21Z</time></trkpt>
<trkpt lat="46.6290657129" lon="6.3600500766"><ele></ele><time>2013-7-26T7:1:24Z</time></trkpt>
<trkpt lat="46.6291182674" lon="6.3600621466"><ele></ele><time>2013-7-26T7:1:27Z</time></trkpt>
<trkpt lat="46.6292180121" lon="6.3600395154"><ele></ele><time>2013-7-26T7:1:30Z</time></trkpt>
<trkpt lat="46.6292446665" lon="6.3600617275"><ele></ele><time>2013-7-26T7:1:33Z</time></trkpt>
<trkpt lat="46.6295107920" lon="6.3601090014"><ele></ele><time>2013-7-26T7:1:36Z</time></trkpt>
<trkpt lat="46.6297238600" lon="6.3601387572"><ele></ele><time>2013-7-26T7:1:39Z</time></trkpt>
<trkpt lat="46.6302274447" lon="6.3601153716"><ele></ele><time>2013-7-26T7:1:42Z</time></trkpt>
<trkpt lat="46.6304872837" lon="6.3600286189"><ele></ele><time>2013-7-26T7:1:45Z</time></trkpt>
<trkpt lat="46.6309565865" lon="6.3599798363"><ele></ele><time>2013-7-26T7:1:48Z</time></trkpt>
<trkpt lat="46.6312205326" lon="6.3600064907"><ele></ele><time>2013-7-26T7:1:51Z</time></trkpt>
<trkpt lat="46.6314532980" lon="6.3599771541"><ele></ele><time>2013-7-26T7:1:54Z</time></trkpt>
<trkpt lat="46.6316817887" lon="6.3598660938"><ele></ele><time>2013-7-26T7:1:57Z</time></trkpt>
<trkpt lat="46.6318801884" lon="6.3598198257"><ele></ele><time>2013-7-26T7:2:0Z</time></trkpt>
<trkpt lat="46.6322418675" lon="6.3598118629"><ele></ele><time>2013-7-26T7:2:3Z</time></trkpt>
<trkpt lat="46.6324230004" lon="6.3596975338"><ele></ele><time>2013-7-26T7:2:6Z</time></trkpt>
<trkpt lat="46.6330240667" lon="6.3592296559"><ele></ele><time>2013-7-26T7:2:9Z</time></trkpt>
<trkpt lat="46.6333153378" lon="6.3588555716"><ele></ele><time>2013-7-26T7:2:12Z</time></trkpt>
<trkpt lat="46.6334825568" lon="6.3587311842"><ele></ele><time>2013-7-26T7:2:15Z</time></trkpt>
<trkpt lat="46.6337301582" lon="6.3585860096"><ele></ele><time>2013-7-26T7:2:18Z</time></trkpt>
<trkpt lat="46.6341531090" lon="6.3584835827"><ele></ele><time>2013-7-26T7:2:21Z</time></trkpt>
<trkpt lat="46.6344846133" lon="6.3584946468"><ele></ele><time>2013-7-26T7:2:24Z</time></trkpt>
<trkpt lat="46.6349556763" lon="6.3582359813"><ele></ele><time>2013-7-26T7:2:27Z</time></trkpt>
<trkpt lat="46.6352167726" lon="6.3581398409"><ele></ele><time>2013-7-26T7:2:30Z</time></trkpt>
<trkpt lat="46.6354889330" lon="6.3582437765"><ele></ele><time>2013-7-26T7:2:33Z</time></trkpt>
<trkpt lat="46.6356450878" lon="6.3583545014"><ele></ele><time>2013-7-26T7:2:36Z</time></trkpt>
<trkpt lat="46.6359856445" lon="6.3582919724"><ele></ele><time>2013-7-26T7:2:39Z</time></trkpt>
<trkpt lat="46.6362143029" lon="6.3582846802"><ele></ele><time>2013-7-26T7:2:42Z</time></trkpt>
<trkpt lat="46.6365147103" lon="6.3581947424"><ele></ele><time>2013-7-26T7:2:45Z</time></trkpt>
<trkpt lat="46.6369025409" lon="6.3581472170"><ele></ele><time>2013-7-26T7:2:48Z</time></trkpt>
<trkpt lat="46.6370709334" lon="6.3580609672"><ele></ele><time>2013-7-26T7:2:51Z</time></trkpt>
<trkpt lat="46.6372928862" lon="6.3578490727"><ele></ele><time>2013-7-26T7:2:54Z</time></trkpt>
<trkpt lat="46.6373103205" lon="6.3578278664"><ele></ele><time>2013-7-26T7:2:57Z</time></trkpt>
<trkpt lat="46.6374403238" lon="6.3576699514"><ele></ele><time>2013-7-26T7:3:0Z</time></trkpt>
<trkpt lat="46.6375409905" lon="6.3575072587"><ele></ele><time>2013-7-26T7:3:3Z</time></trkpt>
<trkpt lat="46.6376214568" lon="6.3573406264"><ele></ele><time>2013-7-26T7:3:6Z</time></trkpt>
<trkpt lat="46.6377039347" lon="6.3570831344"><ele></ele><time>2013-7-26T7:3:9Z</time></trkpt>
<trkpt lat="46.6377114784" lon="6.3570558932"><ele></ele><time>2013-7-26T7:3:12Z</time></trkpt>
<trkpt lat="46.6377386358" lon="6.3569720741"><ele></ele><time>2013-7-26T7:3:15Z</time></trkpt>
<trkpt lat="46.6377723310" lon="6.3568136562"><ele></ele><time>2013-7-26T7:3:18Z</time></trkpt>
<trkpt lat="46.6377735883" lon="6.3567792904"><ele></ele><time>2013-7-26T7:3:21Z</time></trkpt>
<trkpt lat="46.6377044376" lon="6.3566545676"><ele></ele><time>2013-7-26T7:3:24Z</time></trkpt>
<trkpt lat="46.6374751925" lon="6.3565326110"><ele></ele><time>2013-7-26T7:3:27Z</time></trkpt>
<trkpt lat="46.6372534912" lon="6.3563703373"><ele></ele><time>2013-7-26T7:3:30Z</time></trkpt>
<trkpt lat="46.6370700952" lon="6.3562115002"><ele></ele><time>2013-7-26T7:3:33Z</time></trkpt>
<trkpt lat="46.6368894652" lon="6.3561008591"><ele></ele><time>2013-7-26T7:3:36Z</time></trkpt>
<trkpt lat="46.6367372498" lon="6.3560225721"><ele></ele><time>2013-7-26T7:3:39Z</time></trkpt>
<trkpt lat="46.6365795862" lon="6.3559231628"><ele></ele><time>2013-7-26T7:3:42Z</time></trkpt>
<trkpt lat="46.6365263611" lon="6.3558867015"><ele></ele><time>2013-7-26T7:3:45Z</time></trkpt>
<trkpt lat="46.6363738105" lon="6.3557586260"><ele></ele><time>2013-7-26T7:3:48Z</time></trkpt>
<trkpt lat="46.6362085193" lon="6.3556025550"><ele></ele><time>2013-7-26T7:3:51Z</time></trkpt>
<trkpt lat="46.6361086071" lon="6.3555223402"><ele></ele><time>2013-7-26T7:3:54Z</time></trkpt>
<trkpt lat="46.6359335929" lon="6.3554438017"><ele></ele><time>2013-7-26T7:3:57Z</time></trkpt>
<trkpt lat="46.6358475946" lon="6.3554178178"><ele></ele><time>2013-7-26T7:4:0Z</time></trkpt>
<trkpt lat="46.6356432438" lon="6.3552849647"><ele></ele><time>2013-7-26T7:4:3Z</time></trkpt>
<trkpt lat="46.6354916152" lon="6.3551699650"><ele></ele><time>2013-7-26T7:4:6Z</time></trkpt>
<trkpt lat="46.6353252344" lon="6.3550863974"><ele></ele><time>2013-7-26T7:4:9Z</time></trkpt>
<trkpt lat="46.6351348814" lon="6.3549825456"><ele></ele><time>2013-7-26T7:4:12Z</time></trkpt>
<trkpt lat="46.6349522397" lon="6.3548634388"><ele></ele><time>2013-7-26T7:4:15Z</time></trkpt>
<trkpt lat="46.6347628087" lon="6.3547896780"><ele></ele><time>2013-7-26T7:4:18Z</time></trkpt>
<trkpt lat="46.6345908120" lon="6.3547468465"><ele></ele><time>2013-7-26T7:4:21Z</time></trkpt>
<trkpt lat="46.6343643330" lon="6.3546981476"><ele></ele><time>2013-7-26T7:4:24Z</time></trkpt>
<trkpt lat="46.6342006344" lon="6.3545830641"><ele></ele><time>2013-7-26T7:4:27Z</time></trkpt>
<trkpt lat="46.6340650991" lon="6.3544308487"><ele></ele><time>2013-7-26T7:4:30Z</time></trkpt>
<trkpt lat="46.6339100339" lon="6.3541840855"><ele></ele><time>2013-7-26T7:4:33Z</time></trkpt>
<trkpt lat="46.6338869836" lon="6.3541480433"><ele></ele><time>2013-7-26T7:4:36Z</time></trkpt>
<trkpt lat="46.6338557191" lon="6.3540464547"><ele></ele><time>2013-7-26T7:4:39Z</time></trkpt>
<trkpt lat="46.6336185113" lon="6.3537336420"><ele></ele><time>2013-7-26T7:4:42Z</time></trkpt>
<trkpt lat="46.6334129870" lon="6.3534844480"><ele></ele><time>2013-7-26T7:4:45Z</time></trkpt>
<trkpt lat="46.6332313512" lon="6.3532752357"><ele></ele><time>2013-7-26T7:4:48Z</time></trkpt>
<trkpt lat="46.6329972446" lon="6.3529928494"><ele></ele><time>2013-7-26T7:4:51Z</time></trkpt>
<trkpt lat="46.6328111663" lon="6.3526806235"><ele></ele><time>2013-7-26T7:4:54Z</time></trkpt>
<trkpt lat="46.6326071508" lon="6.3524129055"><ele></ele><time>2013-7-26T7:4:57Z</time></trkpt>
<trkpt lat="46.6323233396" lon="6.3520736899"><ele></ele><time>2013-7-26T7:5:0Z</time></trkpt>
<trkpt lat="46.6320523527" lon="6.3516437821"><ele></ele><time>2013-7-26T7:5:3Z</time></trkpt>
<trkpt lat="46.6319947690" lon="6.3515241724"><ele></ele><time>2013-7-26T7:5:6Z</time></trkpt>
<trkpt lat="46.6319193318" lon="6.3514121901"><ele></ele><time>2013-7-26T7:5:9Z</time></trkpt>
<trkpt lat="46.6318092775" lon="6.3511759043"><ele></ele><time>2013-7-26T7:5:12Z</time></trkpt>
<trkpt lat="46.6317041684" lon="6.3508020714"><ele></ele><time>2013-7-26T7:5:15Z</time></trkpt>
<trkpt lat="46.6315910127" lon="6.3504382130"><ele></ele><time>2013-7-26T7:5:18Z</time></trkpt>
<trkpt lat="46.6314210277" lon="6.3501413260"><ele></ele><time>2013-7-26T7:5:21Z</time></trkpt>
<trkpt lat="46.6312171798" lon="6.3499823213"><ele></ele><time>2013-7-26T7:5:24Z</time></trkpt>
<trkpt lat="46.6311464366" lon="6.3499544933"><ele></ele><time>2013-7-26T7:5:27Z</time></trkpt>
<trkpt lat="46.6309069656" lon="6.3498827443"><ele></ele><time>2013-7-26T7:5:30Z</time></trkpt>
<trkpt lat="46.6308191232" lon="6.3498699199"><ele></ele><time>2013-7-26T7:5:33Z</time></trkpt>
<trkpt lat="46.6307232343" lon="6.3499351311"><ele></ele><time>2013-7-26T7:5:36Z</time></trkpt>
<trkpt lat="46.6304558516" lon="6.3500115741"><ele></ele><time>2013-7-26T7:5:39Z</time></trkpt>
<trkpt lat="46.6302090045" lon="6.3500849158"><ele></ele><time>2013-7-26T7:5:42Z</time></trkpt>
<trkpt lat="46.6300889757" lon="6.3501233049"><ele></ele><time>2013-7-26T7:5:45Z</time></trkpt>
<trkpt lat="46.6298873071" lon="6.3502229657"><ele></ele><time>2013-7-26T7:5:48Z</time></trkpt>
<trkpt lat="46.6296031605" lon="6.3503913581"><ele></ele><time>2013-7-26T7:5:51Z</time></trkpt>
<trkpt lat="46.6294740792" lon="6.3505076151"><ele></ele><time>2013-7-26T7:5:54Z</time></trkpt>
<trkpt lat="46.6294058505" lon="6.3505650312"><ele></ele><time>2013-7-26T7:5:57Z</time></trkpt>
<trkpt lat="46.6292157490" lon="6.3506006543"><ele></ele><time>2013-7-26T7:6:0Z</time></trkpt>
<trkpt lat="46.6291508731" lon="6.3505887520"><ele></ele><time>2013-7-26T7:6:3Z</time></trkpt>
<trkpt lat="46.6291052755" lon="6.3505789451"><ele></ele><time>2013-7-26T7:6:6Z</time></trkpt>
<trkpt lat="46.6289892700" lon="6.3505512848"><ele></ele><time>2013-7-26T7:6:9Z</time></trkpt>
<trkpt lat="46.6289411578" lon="6.3505384605"><ele></ele><time>2013-7-26T7:6:12Z</time></trkpt>
<trkpt lat="46.6287713405" lon="6.3505111355"><ele></ele><time>2013-7-26T7:6:15Z</time></trkpt>
<trkpt lat="46.6286934726" lon="6.3505021669"><ele></ele><time>2013-7-26T7:6:18Z</time></trkpt>
<trkpt lat="46.6285917163" lon="6.3505082019"><ele></ele><time>2013-7-26T7:6:21Z</time></trkpt>
<trkpt lat="46.6284455359" lon="6.3505348563"><ele></ele><time>2013-7-26T7:6:24Z</time></trkpt>
<trkpt lat="46.6283079050" lon="6.3505551405"><ele></ele><time>2013-7-26T7:6:27Z</time></trkpt>
<trkpt lat="46.6282751318" lon="6.3505659532"><ele></ele><time>2013-7-26T7:6:30Z</time></trkpt>
<trkpt lat="46.6281411890" lon="6.3506095391"><ele></ele><time>2013-7-26T7:6:33Z</time></trkpt>
<trkpt lat="46.6280996148" lon="6.3506221958"><ele></ele><time>2013-7-26T7:6:36Z</time></trkpt>
<trkpt lat="46.6279126145" lon="6.3506910950"><ele></ele><time>2013-7-26T7:6:39Z</time></trkpt>
<trkpt lat="46.6277907416" lon="6.3507407159"><ele></ele><time>2013-7-26T7:6:42Z</time></trkpt>
<trkpt lat="46.6276753228" lon="6.3507821225"><ele></ele><time>2013-7-26T7:6:45Z</time></trkpt>
<trkpt lat="46.6276067588" lon="6.3508210983"><ele></ele><time>2013-7-26T7:6:48Z</time></trkpt>
<trkpt lat="46.6274889093" lon="6.3508949429"><ele></ele><time>2013-7-26T7:6:51Z</time></trkpt>
<trkpt lat="46.6274730675" lon="6.3509858865"><ele></ele><time>2013-7-26T7:6:54Z</time></trkpt>
<trkpt lat="46.6275555454" lon="6.3510637544"><ele></ele><time>2013-7-26T7:6:57Z</time></trkpt>
<trkpt lat="46.6275714710" lon="6.3510698732"><ele></ele><time>2013-7-26T7:7:0Z</time></trkpt>
<trkpt lat="46.6277133767" lon="6.3511769101"><ele></ele><time>2013-7-26T7:7:3Z</time></trkpt>
<trkpt lat="46.6278628260" lon="6.3512904849"><ele></ele><time>2013-7-26T7:7:6Z</time></trkpt>
<trkpt lat="46.6279131174" lon="6.3513425365"><ele></ele><time>2013-7-26T7:7:9Z</time></trkpt>
<trkpt lat="46.6281366628" lon="6.3515687641"><ele></ele><time>2013-7-26T7:7:12Z</time></trkpt>
<trkpt lat="46.6283953283" lon="6.3517267630"><ele></ele><time>2013-7-26T7:7:15Z</time></trkpt>
<trkpt lat="46.6284187138" lon="6.3517521601"><ele></ele><time>2013-7-26T7:7:18Z</time></trkpt>
<trkpt lat="46.6285381559" lon="6.3518196344"><ele></ele><time>2013-7-26T7:7:21Z</time></trkpt>
<trkpt lat="46.6287363879" lon="6.3519030344"><ele></ele><time>2013-7-26T7:7:24Z</time></trkpt>
<trkpt lat="46.6289578378" lon="6.3520173635"><ele></ele><time>2013-7-26T7:7:27Z</time></trkpt>
<trkpt lat="46.6290764417" lon="6.3520821556"><ele></ele><time>2013-7-26T7:7:30Z</time></trkpt>
<trkpt lat="46.6291912738" lon="6.3523270749"><ele></ele><time>2013-7-26T7:7:33Z</time></trkpt>
<trkpt lat="46.6290163435" lon="6.3525170926"><ele></ele><time>2013-7-26T7:7:36Z</time></trkpt>
<trkpt lat="46.6289954726" lon="6.3525381312"><ele></ele><time>2013-7-26T7:7:39Z</time></trkpt>
<trkpt lat="46.6288465261" lon="6.3526320085"><ele></ele><time>2013-7-26T7:7:42Z</time></trkpt>
<trkpt lat="46.6287730169" lon="6.3526710682"><ele></ele><time>2013-7-26T7:7:45Z</time></trkpt>
<trkpt lat="46.6285415925" lon="6.3527791947"><ele></ele><time>2013-7-26T7:7:48Z</time></trkpt>
<trkpt lat="46.6284909658" lon="6.3527943660"><ele></ele><time>2013-7-26T7:7:51Z</time></trkpt>
<trkpt lat="46.6282490641" lon="6.3528834656"><ele></ele><time>2013-7-26T7:7:54Z</time></trkpt>
<trkpt lat="46.6280562803" lon="6.3529543765"><ele></ele><time>2013-7-26T7:7:57Z</time></trkpt>
<trkpt lat="46.6278595570" lon="6.3530647662"><ele></ele><time>2013-7-26T7:8:0Z</time></trkpt>
<trkpt lat="46.6276712157" lon="6.3531808555"><ele></ele><time>2013-7-26T7:8:3Z</time></trkpt>
<trkpt lat="46.6275184136" lon="6.3533081766"><ele></ele><time>2013-7-26T7:8:6Z</time></trkpt>
<trkpt lat="46.6273485124" lon="6.3535143714"><ele></ele><time>2013-7-26T7:8:9Z</time></trkpt>
<trkpt lat="46.6273413878" lon="6.3535282016"><ele></ele><time>2013-7-26T7:8:12Z</time></trkpt>
<trkpt lat="46.6272825468" lon="6.3536140323"><ele></ele><time>2013-7-26T7:8:15Z</time></trkpt>
<trkpt lat="46.6272310819" lon="6.3537417725"><ele></ele><time>2013-7-26T7:8:18Z</time></trkpt>
<trkpt lat="46.6272416431" lon="6.3537765574"><ele></ele><time>2013-7-26T7:8:21Z</time></trkpt>
<trkpt lat="46.6272320040" lon="6.3537810836"><ele></ele><time>2013-7-26T7:8:24Z</time></trkpt>
<trkpt lat="46.6272341833" lon="6.3537707739"><ele></ele><time>2013-7-26T7:8:27Z</time></trkpt>
<trkpt lat="46.6272445768" lon="6.3537591230"><ele></ele><time>2013-7-26T7:8:30Z</time></trkpt>
<trkpt lat="46.6272496898" lon="6.3537539262"><ele></ele><time>2013-7-26T7:8:33Z</time></trkpt>
<trkpt lat="46.6272487678" lon="6.3537609670"><ele></ele><time>2013-7-26T7:8:36Z</time></trkpt>
<trkpt lat="46.6272488516" lon="6.3537706900"><ele></ele><time>2013-7-26T7:8:39Z</time></trkpt>
<trkpt lat="46.6272491869" lon="6.3537664991"><ele></ele><time>2013-7-26T7:8:42Z</time></trkpt>
<trkpt lat="46.6272499412" lon="6.3537738752"><ele></ele><time>2013-7-26T7:8:45Z</time></trkpt>
<trkpt lat="46.6272480972" lon="6.3537807483"><ele></ele><time>2013-7-26T7:8:48Z</time></trkpt>
<trkpt lat="46.6272487678" lon="6.3537835144"><ele></ele><time>2013-7-26T7:8:51Z</time></trkpt>
<trkpt lat="46.6272486839" lon="6.3537790719"><ele></ele><time>2013-7-26T7:8:54Z</time></trkpt>
<trkpt lat="46.6272473428" lon="6.3537714444"><ele></ele><time>2013-7-26T7:8:57Z</time></trkpt>
<trkpt lat="46.6272450797" lon="6.3537764736"><ele></ele><time>2013-7-26T7:9:0Z</time></trkpt>
<trkpt lat="46.6272459179" lon="6.3537815027"><ele></ele><time>2013-7-26T7:9:3Z</time></trkpt>
<trkpt lat="46.6272625141" lon="6.3537822571"><ele></ele><time>2013-7-26T7:9:6Z</time></trkpt>
<trkpt lat="46.6272578202" lon="6.3537877891"><ele></ele><time>2013-7-26T7:9:9Z</time></trkpt>
<trkpt lat="46.6272531264" lon="6.3537809160"><ele></ele><time>2013-7-26T7:9:12Z</time></trkpt>
<trkpt lat="46.6272444930" lon="6.3537808321"><ele></ele><time>2013-7-26T7:9:15Z</time></trkpt>
<trkpt lat="46.6272358596" lon="6.3537713606"><ele></ele><time>2013-7-26T7:9:18Z</time></trkpt>
<trkpt lat="46.6272453312" lon="6.3537709415"><ele></ele><time>2013-7-26T7:9:21Z</time></trkpt>
<trkpt lat="46.6272454150" lon="6.3537692651"><ele></ele><time>2013-7-26T7:9:24Z</time></trkpt>
<trkpt lat="46.6272338480" lon="6.3537687622"><ele></ele><time>2013-7-26T7:9:27Z</time></trkpt>
<trkpt lat="46.6272407211" lon="6.3537683431"><ele></ele><time>2013-7-26T7:9:30Z</time></trkpt>
<trkpt lat="46.6272491030" lon="6.3537656609"><ele></ele><time>2013-7-26T7:9:33Z</time></trkpt>
<trkpt lat="46.6272526234" lon="6.3537533395"><ele></ele><time>2013-7-26T7:9:36Z</time></trkpt>
<trkpt lat="46.6272554733" lon="6.3537605479"><ele></ele><time>2013-7-26T7:9:39Z</time></trkpt>
<trkpt lat="46.6272455826" lon="6.3537743781"><ele></ele><time>2013-7-26T7:9:42Z</time></trkpt>
<trkpt lat="46.6272436548" lon="6.3537696004"><ele></ele><time>2013-7-26T7:9:45Z</time></trkpt>
<trkpt lat="46.6272491869" lon="6.3537618052"><ele></ele><time>2013-7-26T7:9:48Z</time></trkpt>
<trkpt lat="46.6272580717" lon="6.3537555188"><ele></ele><time>2013-7-26T7:9:51Z</time></trkpt>
<trkpt lat="46.6272709798" lon="6.3537623081"><ele></ele><time>2013-7-26T7:9:54Z</time></trkpt>
<trkpt lat="46.6272728238" lon="6.3537729532"><ele></ele><time>2013-7-26T7:9:57Z</time></trkpt>
<trkpt lat="46.6272641066" lon="6.3537828438"><ele></ele><time>2013-7-26T7:10:0Z</time></trkpt>
<trkpt lat="46.6272562277" lon="6.3537834305"><ele></ele><time>2013-7-26T7:10:3Z</time></trkpt>
<trkpt lat="46.6272532940" lon="6.3537781499"><ele></ele><time>2013-7-26T7:10:6Z</time></trkpt>
<trkpt lat="46.6272523720" lon="6.3537829276"><ele></ele><time>2013-7-26T7:10:9Z</time></trkpt>
<trkpt lat="46.6272400506" lon="6.3537796587"><ele></ele><time>2013-7-26T7:10:12Z</time></trkpt>
<trkpt lat="46.6272359435" lon="6.3537739590"><ele></ele><time>2013-7-26T7:10:15Z</time></trkpt>
<trkpt lat="46.6272392962" lon="6.3537748810"><ele></ele><time>2013-7-26T7:10:18Z</time></trkpt>
<trkpt lat="46.6272409726" lon="6.3537768088"><ele></ele><time>2013-7-26T7:10:21Z</time></trkpt>
<trkpt lat="46.6272404697" lon="6.3537768926"><ele></ele><time>2013-7-26T7:10:24Z</time></trkpt>
<trkpt lat="46.6272390448" lon="6.3537656609"><ele></ele><time>2013-7-26T7:10:27Z</time></trkpt>
<trkpt lat="46.6272392124" lon="6.3537646551"><ele></ele><time>2013-7-26T7:10:30Z</time></trkpt>
<trkpt lat="46.6272546351" lon="6.3537714444"><ele></ele><time>2013-7-26T7:10:33Z</time></trkpt>
<trkpt lat="46.6272486839" lon="6.3537647389"><ele></ele><time>2013-7-26T7:10:36Z</time></trkpt>
<trkpt lat="46.6272449959" lon="6.3537559379"><ele></ele><time>2013-7-26T7:10:39Z</time></trkpt>
<trkpt lat="46.6272576526" lon="6.3537754677"><ele></ele><time>2013-7-26T7:10:42Z</time></trkpt>
<trkpt lat="46.6272620950" lon="6.3537728693"><ele></ele><time>2013-7-26T7:10:45Z</time></trkpt>
<trkpt lat="46.6272633523" lon="6.3537820056"><ele></ele><time>2013-7-26T7:10:48Z</time></trkpt>
<trkpt lat="46.6272649448" lon="6.3537684269"><ele></ele><time>2013-7-26T7:10:51Z</time></trkpt>
<trkpt lat="46.6272407211" lon="6.3537722826"><ele></ele><time>2013-7-26T7:10:54Z</time></trkpt>
<trkpt lat="46.6272339318" lon="6.3537597097"><ele></ele><time>2013-7-26T7:10:57Z</time></trkpt>
<trkpt lat="46.6272260528" lon="6.3536737114"><ele></ele><time>2013-7-26T7:11:0Z</time></trkpt>
<trkpt lat="46.6272566468" lon="6.3536270242"><ele></ele><time>2013-7-26T7:11:3Z</time></trkpt>
<trkpt lat="46.6274687927" lon="6.3533353340"><ele></ele><time>2013-7-26T7:11:6Z</time></trkpt>
<trkpt lat="46.6278947610" lon="6.3530218508"><ele></ele><time>2013-7-26T7:11:9Z</time></trkpt>
<trkpt lat="46.6288062092" lon="6.3526274823"><ele></ele><time>2013-7-26T7:11:12Z</time></trkpt>
<trkpt lat="46.6290158406" lon="6.3525043521"><ele></ele><time>2013-7-26T7:11:15Z</time></trkpt>
<trkpt lat="46.6290655453" lon="6.3521040324"><ele></ele><time>2013-7-26T7:11:18Z</time></trkpt>
<trkpt lat="46.6290001664" lon="6.3520690799"><ele></ele><time>2013-7-26T7:11:21Z</time></trkpt>
<trkpt lat="46.6280566156" lon="6.3515118510"><ele></ele><time>2013-7-26T7:11:24Z</time></trkpt>
<trkpt lat="46.6275358479" lon="6.3510996290"><ele></ele><time>2013-7-26T7:11:27Z</time></trkpt>
<trkpt lat="46.6274969559" lon="6.3508464955"><ele></ele><time>2013-7-26T7:11:30Z</time></trkpt>
<trkpt lat="46.6275582276" lon="6.3508112915"><ele></ele><time>2013-7-26T7:11:33Z</time></trkpt>
<trkpt lat="46.6285516508" lon="6.3504988980"><ele></ele><time>2013-7-26T7:11:36Z</time></trkpt>
<trkpt lat="46.6291911900" lon="6.3505784422"><ele></ele><time>2013-7-26T7:11:39Z</time></trkpt>
<trkpt lat="46.6295672022" lon="6.3504524622"><ele></ele><time>2013-7-26T7:11:42Z</time></trkpt>
<trkpt lat="46.6305788141" lon="6.3499525655"><ele></ele><time>2013-7-26T7:11:45Z</time></trkpt>
<trkpt lat="46.6306521557" lon="6.3499326166"><ele></ele><time>2013-7-26T7:11:48Z</time></trkpt>
<trkpt lat="46.6306864377" lon="6.3496642280"><ele></ele><time>2013-7-26T7:11:51Z</time></trkpt>
<trkpt lat="46.6305094119" lon="6.3494955841"><ele></ele><time>2013-7-26T7:11:54Z</time></trkpt>
<trkpt lat="46.6303449590" lon="6.3489106949"><ele></ele><time>2013-7-26T7:11:57Z</time></trkpt>
<trkpt lat="46.6305205598" lon="6.3487974554"><ele></ele><time>2013-7-26T7:12:0Z</time></trkpt>
<trkpt lat="46.6308581829" lon="6.3487852179"><ele></ele><time>2013-7-26T7:12:3Z</time></trkpt>
<trkpt lat="46.6311885137" lon="6.3489454798"><ele></ele><time>2013-7-26T7:12:6Z</time></trkpt>
<trkpt lat="46.6316412203" lon="6.3492075820"><ele></ele><time>2013-7-26T7:12:9Z</time></trkpt>
<trkpt lat="46.6319582239" lon="6.3495873660"><ele></ele><time>2013-7-26T7:12:12Z</time></trkpt>
<trkpt lat="46.6323084198" lon="6.3503203634"><ele></ele><time>2013-7-26T7:12:15Z</time></trkpt>
<trkpt lat="46.6324442904" lon="6.3504838943"><ele></ele><time>2013-7-26T7:12:18Z</time></trkpt>
<trkpt lat="46.6326629743" lon="6.3506385405"><ele></ele><time>2013-7-26T7:12:21Z</time></trkpt>
<trkpt lat="46.6335356142" lon="6.3510534447"><ele></ele><time>2013-7-26T7:12:24Z</time></trkpt>
<trkpt lat="46.6342901532" lon="6.3519326225"><ele></ele><time>2013-7-26T7:12:27Z</time></trkpt>
<trkpt lat="46.6346767265" lon="6.3524630293"><ele></ele><time>2013-7-26T7:12:30Z</time></trkpt>
<trkpt lat="46.6352816485" lon="6.3527915161"><ele></ele><time>2013-7-26T7:12:33Z</time></trkpt>
<trkpt lat="46.6356936190" lon="6.3529842999"><ele></ele><time>2013-7-26T7:12:36Z</time></trkpt>
<trkpt lat="46.6361278854" lon="6.3527366985"><ele></ele><time>2013-7-26T7:12:39Z</time></trkpt>
<trkpt lat="46.6364727169" lon="6.3525353651"><ele></ele><time>2013-7-26T7:12:42Z</time></trkpt>
<trkpt lat="46.6366828512" lon="6.3525199424"><ele></ele><time>2013-7-26T7:12:45Z</time></trkpt>
<trkpt lat="46.6371650621" lon="6.3526205253"><ele></ele><time>2013-7-26T7:12:48Z</time></trkpt>
<trkpt lat="46.6373615339" lon="6.3525823876"><ele></ele><time>2013-7-26T7:12:51Z</time></trkpt>
<trkpt lat="46.6379462555" lon="6.3529012352"><ele></ele><time>2013-7-26T7:12:54Z</time></trkpt>
<trkpt lat="46.6382622533" lon="6.3531337492"><ele></ele><time>2013-7-26T7:12:57Z</time></trkpt>
<trkpt lat="46.6388090048" lon="6.3533199113"><ele></ele><time>2013-7-26T7:13:0Z</time></trkpt>
<trkpt lat="46.6390343104" lon="6.3533127867"><ele></ele><time>2013-7-26T7:13:3Z</time></trkpt>
<trkpt lat="46.6394511424" lon="6.3534955960"><ele></ele><time>2013-7-26T7:13:6Z</time></trkpt>
<trkpt lat="46.6397964768" lon="6.3540895376"><ele></ele><time>2013-7-26T7:13:9Z</time></trkpt>
<trkpt lat="46.6401061043" lon="6.3544359617"><ele></ele><time>2013-7-26T7:13:12Z</time></trkpt>
<trkpt lat="46.6407142114" lon="6.3545449264"><ele></ele><time>2013-7-26T7:13:15Z</time></trkpt>
<trkpt lat="46.6414034553" lon="6.3547783624"><ele></ele><time>2013-7-26T7:13:18Z</time></trkpt>
<trkpt lat="46.6422061902" lon="6.3547253888"><ele></ele><time>2013-7-26T7:13:21Z</time></trkpt>
<trkpt lat="46.6429326497" lon="6.3547884207"><ele></ele><time>2013-7-26T7:13:24Z</time></trkpt>
<trkpt lat="46.6432178020" lon="6.3548139017"><ele></ele><time>2013-7-26T7:13:27Z</time></trkpt>
<trkpt lat="46.6440057848" lon="6.3553655148"><ele></ele><time>2013-7-26T7:13:30Z</time></trkpt>
<trkpt lat="46.6448910814" lon="6.3559805788"><ele></ele><time>2013-7-26T7:13:33Z</time></trkpt>
<trkpt lat="46.6454151180" lon="6.3562842552"><ele></ele><time>2013-7-26T7:13:36Z</time></trkpt>
<trkpt lat="46.6457873583" lon="6.3567919470"><ele></ele><time>2013-7-26T7:13:39Z</time></trkpt>
<trkpt lat="46.6462398972" lon="6.3570061885"><ele></ele><time>2013-7-26T7:13:42Z</time></trkpt>
<trkpt lat="46.6465352755" lon="6.3569554780"><ele></ele><time>2013-7-26T7:13:45Z</time></trkpt>
<trkpt lat="46.6469772533" lon="6.3572295662"><ele></ele><time>2013-7-26T7:13:48Z</time></trkpt>
<trkpt lat="46.6470649280" lon="6.3575377688"><ele></ele><time>2013-7-26T7:13:51Z</time></trkpt>
<trkpt lat="46.6470808536" lon="6.3576390222"><ele></ele><time>2013-7-26T7:13:54Z</time></trkpt>
<trkpt lat="46.6470065061" lon="6.3576778304"><ele></ele><time>2013-7-26T7:13:57Z</time></trkpt>
<trkpt lat="46.6467408836" lon="6.3575557899"><ele></ele><time>2013-7-26T7:14:0Z</time></trkpt>
<trkpt lat="46.6467006505" lon="6.3575754873"><ele></ele><time>2013-7-26T7:14:3Z</time></trkpt>
<trkpt lat="46.6465771850" lon="6.3576548640"><ele></ele><time>2013-7-26T7:14:6Z</time></trkpt>
<trkpt lat="46.6461532284" lon="6.3579986896"><ele></ele><time>2013-7-26T7:14:9Z</time></trkpt>
<trkpt lat="46.6455652378" lon="6.3583067246"><ele></ele><time>2013-7-26T7:14:12Z</time></trkpt>
<trkpt lat="46.6450148821" lon="6.3585093152"><ele></ele><time>2013-7-26T7:14:15Z</time></trkpt>
<trkpt lat="46.6445541289" lon="6.3586803898"><ele></ele><time>2013-7-26T7:14:18Z</time></trkpt>
<trkpt lat="46.6439238936" lon="6.3589235488"><ele></ele><time>2013-7-26T7:14:21Z</time></trkpt>
<trkpt lat="46.6433208156" lon="6.3589200284"><ele></ele><time>2013-7-26T7:14:24Z</time></trkpt>
<trkpt lat="46.6430800036" lon="6.3589412346"><ele></ele><time>2013-7-26T7:14:27Z</time></trkpt>
<trkpt lat="46.6425400414" lon="6.3590784464"><ele></ele><time>2013-7-26T7:14:30Z</time></trkpt>
<trkpt lat="46.6423823778" lon="6.3591103815"><ele></ele><time>2013-7-26T7:14:33Z</time></trkpt>
<trkpt lat="46.6419393104" lon="6.3591076154"><ele></ele><time>2013-7-26T7:14:36Z</time></trkpt>
<trkpt lat="46.6417633742" lon="6.3590392191"><ele></ele><time>2013-7-26T7:14:39Z</time></trkpt>
<trkpt lat="46.6415388230" lon="6.3589232136"><ele></ele><time>2013-7-26T7:14:42Z</time></trkpt>
<trkpt lat="46.6414195485" lon="6.3588217925"><ele></ele><time>2013-7-26T7:14:45Z</time></trkpt>
<trkpt lat="46.6412700992" lon="6.3586399890"><ele></ele><time>2013-7-26T7:14:48Z</time></trkpt>
<trkpt lat="46.6410076618" lon="6.3585192896"><ele></ele><time>2013-7-26T7:14:51Z</time></trkpt>
<trkpt lat="46.6408509202" lon="6.3584730215"><ele></ele><time>2013-7-26T7:14:54Z</time></trkpt>
<trkpt lat="46.6404907499" lon="6.3583241589"><ele></ele><time>2013-7-26T7:14:57Z</time></trkpt>
<trkpt lat="46.6403059289" lon="6.3584043738"><ele></ele><time>2013-7-26T7:15:0Z</time></trkpt>
<trkpt lat="46.6402305756" lon="6.3585011847"><ele></ele><time>2013-7-26T7:15:3Z</time></trkpt>
<trkpt lat="46.6398693994" lon="6.3588859141"><ele></ele><time>2013-7-26T7:15:6Z</time></trkpt>
<trkpt lat="46.6395793017" lon="6.3594330847"><ele></ele><time>2013-7-26T7:15:9Z</time></trkpt>
<trkpt lat="46.6394682415" lon="6.3596942648"><ele></ele><time>2013-7-26T7:15:12Z</time></trkpt>
<trkpt lat="46.6388717853" lon="6.3603724446"><ele></ele><time>2013-7-26T7:15:15Z</time></trkpt>
<trkpt lat="46.6384440567" lon="6.3609656319"><ele></ele><time>2013-7-26T7:15:18Z</time></trkpt>
<trkpt lat="46.6382401250" lon="6.3611229602"><ele></ele><time>2013-7-26T7:15:21Z</time></trkpt>
<trkpt lat="46.6381744109" lon="6.3612054382"><ele></ele><time>2013-7-26T7:15:24Z</time></trkpt>
<trkpt lat="46.6380785219" lon="6.3614001498"><ele></ele><time>2013-7-26T7:15:27Z</time></trkpt>
<trkpt lat="46.6376968101" lon="6.3619603124"><ele></ele><time>2013-7-26T7:15:30Z</time></trkpt>
<trkpt lat="46.6376275755" lon="6.3619894814"><ele></ele><time>2013-7-26T7:15:33Z</time></trkpt>
<trkpt lat="46.6372254957" lon="6.3622078300"><ele></ele><time>2013-7-26T7:15:36Z</time></trkpt>
<trkpt lat="46.6370118409" lon="6.3624649029"><ele></ele><time>2013-7-26T7:15:39Z</time></trkpt>
<trkpt lat="46.6367209889" lon="6.3633255567"><ele></ele><time>2013-7-26T7:15:42Z</time></trkpt>
<trkpt lat="46.6366456356" lon="6.3635138143"><ele></ele><time>2013-7-26T7:15:45Z</time></trkpt>
<trkpt lat="46.6363950167" lon="6.3639262039"><ele></ele><time>2013-7-26T7:15:48Z</time></trkpt>
<trkpt lat="46.6361871455" lon="6.3643808383"><ele></ele><time>2013-7-26T7:15:51Z</time></trkpt>
<trkpt lat="46.6358998977" lon="6.3647485524"><ele></ele><time>2013-7-26T7:15:54Z</time></trkpt>
<trkpt lat="46.6357667930" lon="6.3651000056"><ele></ele><time>2013-7-26T7:15:57Z</time></trkpt>
<trkpt lat="46.6357698943" lon="6.3651528955"><ele></ele><time>2013-7-26T7:16:0Z</time></trkpt>
<trkpt lat="46.6357854009" lon="6.3652766123"><ele></ele><time>2013-7-26T7:16:3Z</time></trkpt>
<trkpt lat="46.6357047670" lon="6.3657008205"><ele></ele><time>2013-7-26T7:16:6Z</time></trkpt>
<trkpt lat="46.6355692316" lon="6.3661567122"><ele></ele><time>2013-7-26T7:16:9Z</time></trkpt>
<trkpt lat="46.6348827537" lon="6.3671719283"><ele></ele><time>2013-7-26T7:16:12Z</time></trkpt>
<trkpt lat="46.6344439611" lon="6.3676440809"><ele></ele><time>2013-7-26T7:16:15Z</time></trkpt>
<trkpt lat="46.6341930069" lon="6.3677315880"><ele></ele><time>2013-7-26T7:16:18Z</time></trkpt>
<trkpt lat="46.6340818629" lon="6.3677306660"><ele></ele><time>2013-7-26T7:16:21Z</time></trkpt>
<trkpt lat="46.6339177452" lon="6.3676797040"><ele></ele><time>2013-7-26T7:16:24Z</time></trkpt>
<trkpt lat="46.6332796309" lon="6.3670886960"><ele></ele><time>2013-7-26T7:16:27Z</time></trkpt>
<trkpt lat="46.6330000106" lon="6.3669491373"><ele></ele><time>2013-7-26T7:16:30Z</time></trkpt>
<trkpt lat="46.6328164469" lon="6.3669446949"><ele></ele><time>2013-7-26T7:16:33Z</time></trkpt>
<trkpt lat="46.6322991997" lon="6.3671067171"><ele></ele><time>2013-7-26T7:16:36Z</time></trkpt>
<trkpt lat="46.6318998020" lon="6.3671557512"><ele></ele><time>2013-7-26T7:16:39Z</time></trkpt>
<trkpt lat="46.6313340236" lon="6.3669710141"><ele></ele><time>2013-7-26T7:16:42Z</time></trkpt>
<trkpt lat="46.6311839037" lon="6.3669120893"><ele></ele><time>2013-7-26T7:16:45Z</time></trkpt>
<trkpt lat="46.6306794807" lon="6.3671076391"><ele></ele><time>2013-7-26T7:16:48Z</time></trkpt>
<trkpt lat="46.6302781552" lon="6.3675060309"><ele></ele><time>2013-7-26T7:16:51Z</time></trkpt>
<trkpt lat="46.6300173942" lon="6.3680426404"><ele></ele><time>2013-7-26T7:16:54Z</time></trkpt>
<trkpt lat="46.6298543662" lon="6.3686437905"><ele></ele><time>2013-7-26T7:16:57Z</time></trkpt>
<trkpt lat="46.6291204467" lon="6.3703573029"><ele></ele><time>2013-7-26T7:17:0Z</time></trkpt>
<trkpt lat="46.6288963147" lon="6.3714997564"><ele></ele><time>2013-7-26T7:17:3Z</time></trkpt>
<trkpt lat="46.6287738550" lon="6.3718688115"><ele></ele><time>2013-7-26T7:17:6Z</time></trkpt>
<trkpt lat="46.6286238190" lon="6.3720507827"><ele></ele><time>2013-7-26T7:17:9Z</time></trkpt>
<trkpt lat="46.6284514032" lon="6.3721286505"><ele></ele><time>2013-7-26T7:17:12Z</time></trkpt>
<trkpt lat="46.6280712839" lon="6.3721473422"><ele></ele><time>2013-7-26T7:17:15Z</time></trkpt>
<trkpt lat="46.6278401949" lon="6.3719740044"><ele></ele><time>2013-7-26T7:17:18Z</time></trkpt>
<trkpt lat="46.6276623309" lon="6.3715870958"><ele></ele><time>2013-7-26T7:17:21Z</time></trkpt>
<trkpt lat="46.6275178269" lon="6.3712690864"><ele></ele><time>2013-7-26T7:17:24Z</time></trkpt>
<trkpt lat="46.6273345985" lon="6.3708719518"><ele></ele><time>2013-7-26T7:17:27Z</time></trkpt>
<trkpt lat="46.6272165813" lon="6.3706666790"><ele></ele><time>2013-7-26T7:17:30Z</time></trkpt>
<trkpt lat="46.6268150043" lon="6.3702682871"><ele></ele><time>2013-7-26T7:17:33Z</time></trkpt>
<trkpt lat="46.6262897104" lon="6.3699714839"><ele></ele><time>2013-7-26T7:17:36Z</time></trkpt>
<trkpt lat="46.6257098503" lon="6.3697654568"><ele></ele><time>2013-7-26T7:17:39Z</time></trkpt>
<trkpt lat="46.6252585687" lon="6.3695654646"><ele></ele><time>2013-7-26T7:17:42Z</time></trkpt>
<trkpt lat="46.6248802934" lon="6.3694020174"><ele></ele><time>2013-7-26T7:17:45Z</time></trkpt>
<trkpt lat="46.6245294269" lon="6.3693395723"><ele></ele><time>2013-7-26T7:17:48Z</time></trkpt>
<trkpt lat="46.6243153531" lon="6.3693017699"><ele></ele><time>2013-7-26T7:17:51Z</time></trkpt>
<trkpt lat="46.6240854375" lon="6.3692718465"><ele></ele><time>2013-7-26T7:17:54Z</time></trkpt>
<trkpt lat="46.6236650012" lon="6.3694275822"><ele></ele><time>2013-7-26T7:17:57Z</time></trkpt>
<trkpt lat="46.6233213432" lon="6.3696722500"><ele></ele><time>2013-7-26T7:18:0Z</time></trkpt>
<trkpt lat="46.6227298323" lon="6.3697099686"><ele></ele><time>2013-7-26T7:18:3Z</time></trkpt>
<trkpt lat="46.6225192789" lon="6.3696538936"><ele></ele><time>2013-7-26T7:18:6Z</time></trkpt>
<trkpt lat="46.6218820866" lon="6.3697230443"><ele></ele><time>2013-7-26T7:18:9Z</time></trkpt>
<trkpt lat="46.6216351558" lon="6.3697096333"><ele></ele><time>2013-7-26T7:18:12Z</time></trkpt>
<trkpt lat="46.6213442199" lon="6.3696057815"><ele></ele><time>2013-7-26T7:18:15Z</time></trkpt>
<trkpt lat="46.6199524049" lon="6.3691939786"><ele></ele><time>2013-7-26T7:18:18Z</time></trkpt>
<trkpt lat="46.6196239181" lon="6.3692893647"><ele></ele><time>2013-7-26T7:18:21Z</time></trkpt>
<trkpt lat="46.6194921546" lon="6.3694129977"><ele></ele><time>2013-7-26T7:18:24Z</time></trkpt>
<trkpt lat="46.6186988913" lon="6.3696985692"><ele></ele><time>2013-7-26T7:18:27Z</time></trkpt>
<trkpt lat="46.6186161619" lon="6.3697146624"><ele></ele><time>2013-7-26T7:18:30Z</time></trkpt>
<trkpt lat="46.6182040237" lon="6.3694269117"><ele></ele><time>2013-7-26T7:18:33Z</time></trkpt>
<trkpt lat="46.6179564223" lon="6.3696237188"><ele></ele><time>2013-7-26T7:18:36Z</time></trkpt>
<trkpt lat="46.6179519799" lon="6.3697475195"><ele></ele><time>2013-7-26T7:18:39Z</time></trkpt>
<trkpt lat="46.6179694980" lon="6.3700180035"><ele></ele><time>2013-7-26T7:18:42Z</time></trkpt>
<trkpt lat="46.6181178577" lon="6.3704740629"><ele></ele><time>2013-7-26T7:18:45Z</time></trkpt>
<trkpt lat="46.6185163334" lon="6.3708947506"><ele></ele><time>2013-7-26T7:18:48Z</time></trkpt>
<trkpt lat="46.6189994663" lon="6.3710666634"><ele></ele><time>2013-7-26T7:18:51Z</time></trkpt>
<trkpt lat="46.6192561202" lon="6.3713120855"><ele></ele><time>2013-7-26T7:18:54Z</time></trkpt>
<trkpt lat="46.6198787279" lon="6.3724951912"><ele></ele><time>2013-7-26T7:18:57Z</time></trkpt>
<trkpt lat="46.6200758703" lon="6.3727201615"><ele></ele><time>2013-7-26T7:19:0Z</time></trkpt>
<trkpt lat="46.6200796422" lon="6.3730473910"><ele></ele><time>2013-7-26T7:19:3Z</time></trkpt>
<trkpt lat="46.6199623793" lon="6.3730305433"><ele></ele><time>2013-7-26T7:19:6Z</time></trkpt>
<trkpt lat="46.6192933358" lon="6.3727488276"><ele></ele><time>2013-7-26T7:19:9Z</time></trkpt>
<trkpt lat="46.6187757533" lon="6.3729293738"><ele></ele><time>2013-7-26T7:19:12Z</time></trkpt>
<trkpt lat="46.6186522041" lon="6.3728261087"><ele></ele><time>2013-7-26T7:19:15Z</time></trkpt>
<trkpt lat="46.6185363661" lon="6.3726716302"><ele></ele><time>2013-7-26T7:19:18Z</time></trkpt>
<trkpt lat="46.6182658821" lon="6.3726680260"><ele></ele><time>2013-7-26T7:19:21Z</time></trkpt>
<trkpt lat="46.6184424888" lon="6.3729002886"><ele></ele><time>2013-7-26T7:19:24Z</time></trkpt>
<trkpt lat="46.6187665332" lon="6.3735990878"><ele></ele><time>2013-7-26T7:19:27Z</time></trkpt>
<trkpt lat="46.6190849617" lon="6.3739587553"><ele></ele><time>2013-7-26T7:19:30Z</time></trkpt>
<trkpt lat="46.6192557849" lon="6.3744120486"><ele></ele><time>2013-7-26T7:19:33Z</time></trkpt>
<trkpt lat="46.6191903222" lon="6.3748253603"><ele></ele><time>2013-7-26T7:19:36Z</time></trkpt>
<trkpt lat="46.6190070938" lon="6.3747595623"><ele></ele><time>2013-7-26T7:19:39Z</time></trkpt>
<trkpt lat="46.6182164289" lon="6.3743867353"><ele></ele><time>2013-7-26T7:19:42Z</time></trkpt>
<trkpt lat="46.6177493054" lon="6.3743091188"><ele></ele><time>2013-7-26T7:19:45Z</time></trkpt>
<trkpt lat="46.6162390541" lon="6.3736651372"><ele></ele><time>2013-7-26T7:19:48Z</time></trkpt>
<trkpt lat="46.6160683986" lon="6.3735659793"><ele></ele><time>2013-7-26T7:19:51Z</time></trkpt>
<trkpt lat="46.6156361438" lon="6.3736780453"><ele></ele><time>2013-7-26T7:19:54Z</time></trkpt>
<trkpt lat="46.6154235788" lon="6.3737585116"><ele></ele><time>2013-7-26T7:19:57Z</time></trkpt>
<trkpt lat="46.6148966085" lon="6.3740303367"><ele></ele><time>2013-7-26T7:20:0Z</time></trkpt>
<trkpt lat="46.6146744043" lon="6.3742020819"><ele></ele><time>2013-7-26T7:20:3Z</time></trkpt>
<trkpt lat="46.6136855911" lon="6.3742700592"><ele></ele><time>2013-7-26T7:20:6Z</time></trkpt>
<trkpt lat="46.6131622251" lon="6.3740799576"><ele></ele><time>2013-7-26T7:20:9Z</time></trkpt>
<trkpt lat="46.6126936767" lon="6.3741101325"><ele></ele><time>2013-7-26T7:20:12Z</time></trkpt>
<trkpt lat="46.6123209335" lon="6.3742405549"><ele></ele><time>2013-7-26T7:20:15Z</time></trkpt>
<trkpt lat="46.6116271634" lon="6.3746431377"><ele></ele><time>2013-7-26T7:20:18Z</time></trkpt>
<trkpt lat="46.6110571101" lon="6.3747407030"><ele></ele><time>2013-7-26T7:20:21Z</time></trkpt>
<trkpt lat="46.6102846339" lon="6.3752281107"><ele></ele><time>2013-7-26T7:20:24Z</time></trkpt>
<trkpt lat="46.6087841056" lon="6.3759064581"><ele></ele><time>2013-7-26T7:20:27Z</time></trkpt>
<trkpt lat="46.6077201068" lon="6.3765009865"><ele></ele><time>2013-7-26T7:20:30Z</time></trkpt>
<trkpt lat="46.6074209567" lon="6.3768136315"><ele></ele><time>2013-7-26T7:20:33Z</time></trkpt>
<trkpt lat="46.6072754469" lon="6.3769281283"><ele></ele><time>2013-7-26T7:20:36Z</time></trkpt>
<trkpt lat="46.6072371416" lon="6.3769179862"><ele></ele><time>2013-7-26T7:20:39Z</time></trkpt>
<trkpt lat="46.6072319448" lon="6.3769084308"><ele></ele><time>2013-7-26T7:20:42Z</time></trkpt>
<trkpt lat="46.6072386503" lon="6.3769166451"><ele></ele><time>2013-7-26T7:20:45Z</time></trkpt>
<trkpt lat="46.6071099043" lon="6.3768233545"><ele></ele><time>2013-7-26T7:20:48Z</time></trkpt>
<trkpt lat="46.6068540048" lon="6.3766666967"><ele></ele><time>2013-7-26T7:20:51Z</time></trkpt>
<trkpt lat="46.6063572094" lon="6.3765654434"><ele></ele><time>2013-7-26T7:20:54Z</time></trkpt>
<trkpt lat="46.6061229352" lon="6.3763853163"><ele></ele><time>2013-7-26T7:20:57Z</time></trkpt>
<trkpt lat="46.6053911112" lon="6.3759357948"><ele></ele><time>2013-7-26T7:21:0Z</time></trkpt>
<trkpt lat="46.6049622931" lon="6.3756736089"><ele></ele><time>2013-7-26T7:21:3Z</time></trkpt>
<trkpt lat="46.6048943158" lon="6.3756110799"><ele></ele><time>2013-7-26T7:21:6Z</time></trkpt>
<trkpt lat="46.6047612112" lon="6.3754913863"><ele></ele><time>2013-7-26T7:21:9Z</time></trkpt>
<trkpt lat="46.6042516753" lon="6.3750560302"><ele></ele><time>2013-7-26T7:21:12Z</time></trkpt>
<trkpt lat="46.6038967855" lon="6.3747803494"><ele></ele><time>2013-7-26T7:21:15Z</time></trkpt>
<trkpt lat="46.6037820373" lon="6.3746839575"><ele></ele><time>2013-7-26T7:21:18Z</time></trkpt>
<trkpt lat="46.6032309271" lon="6.3744657766"><ele></ele><time>2013-7-26T7:21:21Z</time></trkpt>
<trkpt lat="46.6025730316" lon="6.3745156489"><ele></ele><time>2013-7-26T7:21:24Z</time></trkpt>
<trkpt lat="46.6021163855" lon="6.3743303251"><ele></ele><time>2013-7-26T7:21:27Z</time></trkpt>
<trkpt lat="46.6020430438" lon="6.3743216917"><ele></ele><time>2013-7-26T7:21:30Z</time></trkpt>
<trkpt lat="46.6018341668" lon="6.3747296389"><ele></ele><time>2013-7-26T7:21:33Z</time></trkpt>
<trkpt lat="46.6017706320" lon="6.3749485742"><ele></ele><time>2013-7-26T7:21:36Z</time></trkpt>
<trkpt lat="46.6016677860" lon="6.3762279879"><ele></ele><time>2013-7-26T7:21:39Z</time></trkpt>
<trkpt lat="46.6015884094" lon="6.3765980490"><ele></ele><time>2013-7-26T7:21:42Z</time></trkpt>
<trkpt lat="46.6011704877" lon="6.3771083392"><ele></ele><time>2013-7-26T7:21:45Z</time></trkpt>
<trkpt lat="46.6007252410" lon="6.3769108616"><ele></ele><time>2013-7-26T7:21:48Z</time></trkpt>
<trkpt lat="46.6005625483" lon="6.3767029066"><ele></ele><time>2013-7-26T7:21:51Z</time></trkpt>
<trkpt lat="46.6001920681" lon="6.3765625935"><ele></ele><time>2013-7-26T7:21:54Z</time></trkpt>
<trkpt lat="46.6001049802" lon="6.3764668722"><ele></ele><time>2013-7-26T7:21:57Z</time></trkpt>
<trkpt lat="46.5999629907" lon="6.3762682211"><ele></ele><time>2013-7-26T7:22:0Z</time></trkpt>
<trkpt lat="46.5998199116" lon="6.3757681567"><ele></ele><time>2013-7-26T7:22:3Z</time></trkpt>
<trkpt lat="46.5998124518" lon="6.3752931543"><ele></ele><time>2013-7-26T7:22:6Z</time></trkpt>
<trkpt lat="46.5998053271" lon="6.3752864487"><ele></ele><time>2013-7-26T7:22:9Z</time></trkpt>
</trkseg></trk></gpx>